<?xml version="1.0" encoding="UTF-8" standalone="no" ?>
<gpx xmlns="http://www.topografix.com/GPX/1/1" xmlns:xsi="http://www.w3.org/2001/XMLSchema-instance" xsi:schemaLocation="http://www.topografix.com/GPX/1/1 http://www.topografix.com/GPX/1/1/gpx.xsd" version="1.1" creator="VisuGPX - https://www.visugpx.com">
  <metadata>
    <name>Découverte autour de Soultzeren</name>
  </metadata>
  <trk>
    <name><![CDATA[Découverte autour de Soultzeren]]></name>
    <extensions>
      <line xmlns="http://www.topografix.com/GPX/gpx_style/0/2">
        <color>0000FF</color>
        <width>4</width>
      </line>
    </extensions>
    <trkseg>
      <trkpt lat="48.06053" lon="7.09083">
        <ele>708.73772340704</ele>
        <time>2022-03-24T17:31:45.000Z</time>
      </trkpt>
      <trkpt lat="48.06041" lon="7.09076">
        <ele>709.14269017895</ele>
        <time>2022-03-24T17:31:45.002Z</time>
      </trkpt>
      <trkpt lat="48.06035" lon="7.09066">
        <ele>709.25242840553</ele>
        <time>2022-03-24T17:31:45.006Z</time>
      </trkpt>
      <trkpt lat="48.06035" lon="7.09066">
        <ele>709.49017673759</ele>
        <time>2022-03-24T17:31:45.010Z</time>
      </trkpt>
      <trkpt lat="48.0603" lon="7.09044">
        <ele>709.71584295837</ele>
        <time>2022-03-24T17:31:45.016Z</time>
      </trkpt>
      <trkpt lat="48.0603" lon="7.09026">
        <ele>710.03750747889</ele>
        <time>2022-03-24T17:31:45.024Z</time>
      </trkpt>
      <trkpt lat="48.06034" lon="7.09008">
        <ele>710.42258399184</ele>
        <time>2022-03-24T17:31:45.034Z</time>
      </trkpt>
      <trkpt lat="48.06044" lon="7.08971">
        <ele>710.71411566972</ele>
        <time>2022-03-24T17:31:45.048Z</time>
      </trkpt>
      <trkpt lat="48.06053" lon="7.08942">
        <ele>711.08885464954</ele>
        <time>2022-03-24T17:31:45.066Z</time>
      </trkpt>
      <trkpt lat="48.06065" lon="7.08877">
        <ele>712.14020893491</ele>
        <time>2022-03-24T17:31:45.091Z</time>
      </trkpt>
      <trkpt lat="48.06073" lon="7.08816">
        <ele>713.07070281999</ele>
        <time>2022-03-24T17:31:45.123Z</time>
      </trkpt>
      <trkpt lat="48.06076" lon="7.08761">
        <ele>713.53151232994</ele>
        <time>2022-03-24T17:31:45.160Z</time>
      </trkpt>
      <trkpt lat="48.06073" lon="7.08718">
        <ele>713.89323419409</ele>
        <time>2022-03-24T17:31:45.202Z</time>
      </trkpt>
      <trkpt lat="48.06073" lon="7.08669">
        <ele>714.01953307123</ele>
        <time>2022-03-24T17:31:45.249Z</time>
      </trkpt>
      <trkpt lat="48.06072" lon="7.08656">
        <ele>713.91788193226</ele>
        <time>2022-03-24T17:31:45.298Z</time>
      </trkpt>
      <trkpt lat="48.0607" lon="7.0865">
        <ele>713.62208746523</ele>
        <time>2022-03-24T17:31:45.348Z</time>
      </trkpt>
      <trkpt lat="48.0607" lon="7.0865">
        <ele>713.14229018404</ele>
        <time>2022-03-24T17:31:45.398Z</time>
      </trkpt>
      <trkpt lat="48.06068" lon="7.08644">
        <ele>712.48524342855</ele>
        <time>2022-03-24T17:31:45.448Z</time>
      </trkpt>
      <trkpt lat="48.06066" lon="7.08643">
        <ele>711.62321800292</ele>
        <time>2022-03-24T17:31:45.499Z</time>
      </trkpt>
      <trkpt lat="48.06063" lon="7.08699">
        <ele>710.44562183596</ele>
        <time>2022-03-24T17:31:45.556Z</time>
      </trkpt>
      <trkpt lat="48.06064" lon="7.08778">
        <ele>709.23181898163</ele>
        <time>2022-03-24T17:31:45.621Z</time>
      </trkpt>
      <trkpt lat="48.06057" lon="7.08828">
        <ele>707.84543676416</ele>
        <time>2022-03-24T17:31:45.692Z</time>
      </trkpt>
      <trkpt lat="48.06057" lon="7.08828">
        <ele>706.38757655449</ele>
        <time>2022-03-24T17:31:45.763Z</time>
      </trkpt>
      <trkpt lat="48.06044" lon="7.0888">
        <ele>704.42928575219</ele>
        <time>2022-03-24T17:31:45.840Z</time>
      </trkpt>
      <trkpt lat="48.0602" lon="7.08941">
        <ele>702.27579736697</ele>
        <time>2022-03-24T17:31:45.924Z</time>
      </trkpt>
      <trkpt lat="48.06" lon="7.08978">
        <ele>700.27270751393</ele>
        <time>2022-03-24T17:31:46.013Z</time>
      </trkpt>
      <trkpt lat="48.05969" lon="7.09034">
        <ele>697.9000806929</ele>
        <time>2022-03-24T17:31:46.110Z</time>
      </trkpt>
      <trkpt lat="48.05962" lon="7.09053">
        <ele>695.7265574767</ele>
        <time>2022-03-24T17:31:46.209Z</time>
      </trkpt>
      <trkpt lat="48.05957" lon="7.09069">
        <ele>693.68445758138</ele>
        <time>2022-03-24T17:31:46.310Z</time>
      </trkpt>
      <trkpt lat="48.05954" lon="7.09099">
        <ele>691.63555269326</ele>
        <time>2022-03-24T17:31:46.414Z</time>
      </trkpt>
      <trkpt lat="48.05956" lon="7.09124">
        <ele>689.72254028631</ele>
        <time>2022-03-24T17:31:46.521Z</time>
      </trkpt>
      <trkpt lat="48.0596" lon="7.09144">
        <ele>687.86640801476</ele>
        <time>2022-03-24T17:31:46.630Z</time>
      </trkpt>
      <trkpt lat="48.05969" lon="7.09179">
        <ele>685.8969250186</ele>
        <time>2022-03-24T17:31:46.744Z</time>
      </trkpt>
      <trkpt lat="48.05969" lon="7.0918">
        <ele>684.18890604971</ele>
        <time>2022-03-24T17:31:46.858Z</time>
      </trkpt>
      <trkpt lat="48.05969" lon="7.0918">
        <ele>682.5732176901</ele>
        <time>2022-03-24T17:31:46.972Z</time>
      </trkpt>
      <trkpt lat="48.05978" lon="7.09205">
        <ele>680.77356560305</ele>
        <time>2022-03-24T17:31:47.089Z</time>
      </trkpt>
      <trkpt lat="48.06003" lon="7.09254">
        <ele>678.98109675907</ele>
        <time>2022-03-24T17:31:47.212Z</time>
      </trkpt>
      <trkpt lat="48.06021" lon="7.09279">
        <ele>677.38773806622</ele>
        <time>2022-03-24T17:31:47.339Z</time>
      </trkpt>
      <trkpt lat="48.06021" lon="7.09279">
        <ele>675.99132939398</ele>
        <time>2022-03-24T17:31:47.466Z</time>
      </trkpt>
      <trkpt lat="48.06037" lon="7.09297">
        <ele>674.52312668547</ele>
        <time>2022-03-24T17:31:47.596Z</time>
      </trkpt>
      <trkpt lat="48.06064" lon="7.09322">
        <ele>673.0208152381</ele>
        <time>2022-03-24T17:31:47.731Z</time>
      </trkpt>
      <trkpt lat="48.06088" lon="7.09339">
        <ele>671.51191753528</ele>
        <time>2022-03-24T17:31:47.871Z</time>
      </trkpt>
      <trkpt lat="48.06111" lon="7.09346">
        <ele>670.15210593573</ele>
        <time>2022-03-24T17:31:48.014Z</time>
      </trkpt>
      <trkpt lat="48.06129" lon="7.09346">
        <ele>668.94214084918</ele>
        <time>2022-03-24T17:31:48.160Z</time>
      </trkpt>
      <trkpt lat="48.06147" lon="7.09338">
        <ele>667.99685564183</ele>
        <time>2022-03-24T17:31:48.309Z</time>
      </trkpt>
      <trkpt lat="48.0617" lon="7.09322">
        <ele>667.26870032981</ele>
        <time>2022-03-24T17:31:48.462Z</time>
      </trkpt>
      <trkpt lat="48.06182" lon="7.09315">
        <ele>666.62233976767</ele>
        <time>2022-03-24T17:31:48.617Z</time>
      </trkpt>
      <trkpt lat="48.06192" lon="7.09311">
        <ele>666.07728220598</ele>
        <time>2022-03-24T17:31:48.774Z</time>
      </trkpt>
      <trkpt lat="48.06209" lon="7.09309">
        <ele>665.6087602273</ele>
        <time>2022-03-24T17:31:48.934Z</time>
      </trkpt>
      <trkpt lat="48.06225" lon="7.09315">
        <ele>665.21365076302</ele>
        <time>2022-03-24T17:31:49.096Z</time>
      </trkpt>
      <trkpt lat="48.06231" lon="7.0932">
        <ele>664.70561825647</ele>
        <time>2022-03-24T17:31:49.260Z</time>
      </trkpt>
      <trkpt lat="48.06231" lon="7.0932">
        <ele>664.16239857245</ele>
        <time>2022-03-24T17:31:49.424Z</time>
      </trkpt>
      <trkpt lat="48.06236" lon="7.09324">
        <ele>663.59590727673</ele>
        <time>2022-03-24T17:31:49.589Z</time>
      </trkpt>
      <trkpt lat="48.06246" lon="7.09339">
        <ele>662.85578792643</ele>
        <time>2022-03-24T17:31:49.756Z</time>
      </trkpt>
      <trkpt lat="48.06271" lon="7.09393">
        <ele>661.67454932445</ele>
        <time>2022-03-24T17:31:49.930Z</time>
      </trkpt>
      <trkpt lat="48.0628" lon="7.09409">
        <ele>660.80601452138</ele>
        <time>2022-03-24T17:31:50.106Z</time>
      </trkpt>
      <trkpt lat="48.06297" lon="7.09427">
        <ele>659.84967514129</ele>
        <time>2022-03-24T17:31:50.285Z</time>
      </trkpt>
      <trkpt lat="48.06312" lon="7.09439">
        <ele>658.87998994421</ele>
        <time>2022-03-24T17:31:50.467Z</time>
      </trkpt>
      <trkpt lat="48.06323" lon="7.09445">
        <ele>657.92038387587</ele>
        <time>2022-03-24T17:31:50.651Z</time>
      </trkpt>
      <trkpt lat="48.06344" lon="7.09451">
        <ele>656.91117052026</ele>
        <time>2022-03-24T17:31:50.838Z</time>
      </trkpt>
      <trkpt lat="48.06358" lon="7.09451">
        <ele>656.00740573746</ele>
        <time>2022-03-24T17:31:51.028Z</time>
      </trkpt>
      <trkpt lat="48.06375" lon="7.09448">
        <ele>655.17903770431</ele>
        <time>2022-03-24T17:31:51.220Z</time>
      </trkpt>
      <trkpt lat="48.0641" lon="7.09435">
        <ele>654.10369232245</ele>
        <time>2022-03-24T17:31:51.418Z</time>
      </trkpt>
      <trkpt lat="48.06463" lon="7.0941">
        <ele>652.60033251135</ele>
        <time>2022-03-24T17:31:51.625Z</time>
      </trkpt>
      <trkpt lat="48.06463" lon="7.0941">
        <ele>651.62125754734</ele>
        <time>2022-03-24T17:31:51.832Z</time>
      </trkpt>
      <trkpt lat="48.06492" lon="7.09396">
        <ele>650.79419118367</ele>
        <time>2022-03-24T17:31:52.044Z</time>
      </trkpt>
      <trkpt lat="48.06501" lon="7.09393">
        <ele>649.99120850973</ele>
        <time>2022-03-24T17:31:52.258Z</time>
      </trkpt>
      <trkpt lat="48.06523" lon="7.09394">
        <ele>649.02552857505</ele>
        <time>2022-03-24T17:31:52.475Z</time>
      </trkpt>
      <trkpt lat="48.06534" lon="7.09399">
        <ele>647.95037691446</ele>
        <time>2022-03-24T17:31:52.694Z</time>
      </trkpt>
      <trkpt lat="48.06552" lon="7.09411">
        <ele>646.73074284567</ele>
        <time>2022-03-24T17:31:52.916Z</time>
      </trkpt>
      <trkpt lat="48.06552" lon="7.09411">
        <ele>645.82476518487</ele>
        <time>2022-03-24T17:31:53.138Z</time>
      </trkpt>
      <trkpt lat="48.06563" lon="7.09419">
        <ele>644.75970320143</ele>
        <time>2022-03-24T17:31:53.362Z</time>
      </trkpt>
      <trkpt lat="48.06574" lon="7.09422">
        <ele>643.76187944679</ele>
        <time>2022-03-24T17:31:53.588Z</time>
      </trkpt>
      <trkpt lat="48.06586" lon="7.0942">
        <ele>642.85508253842</ele>
        <time>2022-03-24T17:31:53.816Z</time>
      </trkpt>
      <trkpt lat="48.06617" lon="7.09401">
        <ele>642.25145890987</ele>
        <time>2022-03-24T17:31:54.049Z</time>
      </trkpt>
      <trkpt lat="48.06629" lon="7.09401">
        <ele>641.46946091817</ele>
        <time>2022-03-24T17:31:54.284Z</time>
      </trkpt>
      <trkpt lat="48.06641" lon="7.09408">
        <ele>640.68300812052</ele>
        <time>2022-03-24T17:31:54.521Z</time>
      </trkpt>
      <trkpt lat="48.06649" lon="7.09419">
        <ele>639.75282575105</ele>
        <time>2022-03-24T17:31:54.760Z</time>
      </trkpt>
      <trkpt lat="48.06656" lon="7.09431">
        <ele>638.70089311983</ele>
        <time>2022-03-24T17:31:55.000Z</time>
      </trkpt>
      <trkpt lat="48.06658" lon="7.09445">
        <ele>637.54476613505</ele>
        <time>2022-03-24T17:31:55.242Z</time>
      </trkpt>
      <trkpt lat="48.06678" lon="7.09644">
        <ele>636.01228780752</ele>
        <time>2022-03-24T17:31:55.506Z</time>
      </trkpt>
      <trkpt lat="48.0668" lon="7.09676">
        <ele>634.75616931106</ele>
        <time>2022-03-24T17:31:55.773Z</time>
      </trkpt>
      <trkpt lat="48.06675" lon="7.0971">
        <ele>633.38637519502</ele>
        <time>2022-03-24T17:31:56.044Z</time>
      </trkpt>
      <trkpt lat="48.06668" lon="7.09743">
        <ele>632.03426556252</ele>
        <time>2022-03-24T17:31:56.318Z</time>
      </trkpt>
      <trkpt lat="48.06659" lon="7.09765">
        <ele>630.66169638919</ele>
        <time>2022-03-24T17:31:56.595Z</time>
      </trkpt>
      <trkpt lat="48.06645" lon="7.0979">
        <ele>629.15413529509</ele>
        <time>2022-03-24T17:31:56.876Z</time>
      </trkpt>
      <trkpt lat="48.06638" lon="7.09809">
        <ele>627.62058493163</ele>
        <time>2022-03-24T17:31:57.159Z</time>
      </trkpt>
      <trkpt lat="48.06636" lon="7.09821">
        <ele>626.17750187927</ele>
        <time>2022-03-24T17:31:57.443Z</time>
      </trkpt>
      <trkpt lat="48.06634" lon="7.09834">
        <ele>624.64148682188</ele>
        <time>2022-03-24T17:31:57.729Z</time>
      </trkpt>
      <trkpt lat="48.06637" lon="7.09848">
        <ele>623.09142333706</ele>
        <time>2022-03-24T17:31:58.016Z</time>
      </trkpt>
      <trkpt lat="48.06642" lon="7.09863">
        <ele>621.45426684853</ele>
        <time>2022-03-24T17:31:58.305Z</time>
      </trkpt>
      <trkpt lat="48.06648" lon="7.09871">
        <ele>619.88535697099</ele>
        <time>2022-03-24T17:31:58.596Z</time>
      </trkpt>
      <trkpt lat="48.06665" lon="7.09881">
        <ele>618.2528736143</ele>
        <time>2022-03-24T17:31:58.889Z</time>
      </trkpt>
      <trkpt lat="48.06676" lon="7.09882">
        <ele>616.68606405073</ele>
        <time>2022-03-24T17:31:59.184Z</time>
      </trkpt>
      <trkpt lat="48.06698" lon="7.09878">
        <ele>615.0517796507</ele>
        <time>2022-03-24T17:31:59.483Z</time>
      </trkpt>
      <trkpt lat="48.06698" lon="7.09878">
        <ele>613.57052810785</ele>
        <time>2022-03-24T17:31:59.782Z</time>
      </trkpt>
      <trkpt lat="48.06745" lon="7.09864">
        <ele>612.24970213913</ele>
        <time>2022-03-24T17:32:00.088Z</time>
      </trkpt>
      <trkpt lat="48.06761" lon="7.09862">
        <ele>610.89461797401</ele>
        <time>2022-03-24T17:32:00.397Z</time>
      </trkpt>
      <trkpt lat="48.06777" lon="7.09865">
        <ele>609.43561283824</ele>
        <time>2022-03-24T17:32:00.709Z</time>
      </trkpt>
      <trkpt lat="48.06853" lon="7.09905">
        <ele>607.41672850932</ele>
        <time>2022-03-24T17:32:01.033Z</time>
      </trkpt>
      <trkpt lat="48.06874" lon="7.09909">
        <ele>605.97354073967</ele>
        <time>2022-03-24T17:32:01.361Z</time>
      </trkpt>
      <trkpt lat="48.06894" lon="7.09909">
        <ele>604.58008190931</ele>
        <time>2022-03-24T17:32:01.692Z</time>
      </trkpt>
      <trkpt lat="48.0706" lon="7.0989">
        <ele>602.71067211116</ele>
        <time>2022-03-24T17:32:02.050Z</time>
      </trkpt>
      <trkpt lat="48.07087" lon="7.09886">
        <ele>601.48990869343</ele>
        <time>2022-03-24T17:32:02.412Z</time>
      </trkpt>
      <trkpt lat="48.07117" lon="7.09886">
        <ele>600.49142612004</ele>
        <time>2022-03-24T17:32:02.779Z</time>
      </trkpt>
      <trkpt lat="48.07142" lon="7.09892">
        <ele>599.59306722114</ele>
        <time>2022-03-24T17:32:03.150Z</time>
      </trkpt>
      <trkpt lat="48.07174" lon="7.09906">
        <ele>598.81863940667</ele>
        <time>2022-03-24T17:32:03.526Z</time>
      </trkpt>
      <trkpt lat="48.07189" lon="7.09916">
        <ele>598.02341245775</ele>
        <time>2022-03-24T17:32:03.905Z</time>
      </trkpt>
      <trkpt lat="48.07202" lon="7.09931">
        <ele>597.15868538095</ele>
        <time>2022-03-24T17:32:04.287Z</time>
      </trkpt>
      <trkpt lat="48.07237" lon="7.09985">
        <ele>595.69082300105</ele>
        <time>2022-03-24T17:32:04.677Z</time>
      </trkpt>
      <trkpt lat="48.0725" lon="7.09999">
        <ele>594.83298896868</ele>
        <time>2022-03-24T17:32:05.069Z</time>
      </trkpt>
      <trkpt lat="48.07285" lon="7.10027">
        <ele>594.03605882353</ele>
        <time>2022-03-24T17:32:05.467Z</time>
      </trkpt>
      <trkpt lat="48.07289" lon="7.10035">
        <ele>593.40197516814</ele>
        <time>2022-03-24T17:32:05.867Z</time>
      </trkpt>
      <trkpt lat="48.07291" lon="7.10045">
        <ele>592.82248122177</ele>
        <time>2022-03-24T17:32:06.268Z</time>
      </trkpt>
      <trkpt lat="48.07291" lon="7.1005">
        <ele>592.33970450994</ele>
        <time>2022-03-24T17:32:06.669Z</time>
      </trkpt>
      <trkpt lat="48.07291" lon="7.1005">
        <ele>591.87474778269</ele>
        <time>2022-03-24T17:32:07.070Z</time>
      </trkpt>
      <trkpt lat="48.07292" lon="7.10058">
        <ele>591.47516016017</ele>
        <time>2022-03-24T17:32:07.472Z</time>
      </trkpt>
      <trkpt lat="48.0729" lon="7.1007">
        <ele>591.09948845297</ele>
        <time>2022-03-24T17:32:07.875Z</time>
      </trkpt>
      <trkpt lat="48.07286" lon="7.10079">
        <ele>590.7465926877</ele>
        <time>2022-03-24T17:32:08.280Z</time>
      </trkpt>
      <trkpt lat="48.07284" lon="7.10082">
        <ele>590.32872756924</ele>
        <time>2022-03-24T17:32:08.685Z</time>
      </trkpt>
      <trkpt lat="48.07271" lon="7.10093">
        <ele>589.9425074641</ele>
        <time>2022-03-24T17:32:09.092Z</time>
      </trkpt>
      <trkpt lat="48.07259" lon="7.10096">
        <ele>589.45095304411</ele>
        <time>2022-03-24T17:32:09.501Z</time>
      </trkpt>
      <trkpt lat="48.07233" lon="7.10086">
        <ele>588.81651019251</ele>
        <time>2022-03-24T17:32:09.915Z</time>
      </trkpt>
      <trkpt lat="48.07191" lon="7.10066">
        <ele>588.0175176569</ele>
        <time>2022-03-24T17:32:10.336Z</time>
      </trkpt>
      <trkpt lat="48.07187" lon="7.10063">
        <ele>587.32880705953</ele>
        <time>2022-03-24T17:32:10.757Z</time>
      </trkpt>
      <trkpt lat="48.07171" lon="7.10056">
        <ele>586.44940731792</ele>
        <time>2022-03-24T17:32:11.181Z</time>
      </trkpt>
      <trkpt lat="48.07158" lon="7.10052">
        <ele>585.50720677407</ele>
        <time>2022-03-24T17:32:11.607Z</time>
      </trkpt>
      <trkpt lat="48.07148" lon="7.10054">
        <ele>584.51726721455</ele>
        <time>2022-03-24T17:32:12.035Z</time>
      </trkpt>
      <trkpt lat="48.07142" lon="7.10057">
        <ele>583.48740322685</ele>
        <time>2022-03-24T17:32:12.464Z</time>
      </trkpt>
      <trkpt lat="48.07136" lon="7.10062">
        <ele>582.40815036078</ele>
        <time>2022-03-24T17:32:12.894Z</time>
      </trkpt>
      <trkpt lat="48.0711" lon="7.1011">
        <ele>581.64734650162</ele>
        <time>2022-03-24T17:32:13.331Z</time>
      </trkpt>
      <trkpt lat="48.07063" lon="7.10162">
        <ele>580.06381952261</ele>
        <time>2022-03-24T17:32:13.777Z</time>
      </trkpt>
      <trkpt lat="48.07063" lon="7.10162">
        <ele>578.80216208614</ele>
        <time>2022-03-24T17:32:14.223Z</time>
      </trkpt>
      <trkpt lat="48.07" lon="7.10233">
        <ele>577.00209094739</ele>
        <time>2022-03-24T17:32:14.681Z</time>
      </trkpt>
      <trkpt lat="48.06981" lon="7.10254">
        <ele>575.55006220757</ele>
        <time>2022-03-24T17:32:15.143Z</time>
      </trkpt>
      <trkpt lat="48.06966" lon="7.1028">
        <ele>574.12099739428</ele>
        <time>2022-03-24T17:32:15.609Z</time>
      </trkpt>
      <trkpt lat="48.06955" lon="7.10305">
        <ele>572.56284156207</ele>
        <time>2022-03-24T17:32:16.078Z</time>
      </trkpt>
      <trkpt lat="48.06955" lon="7.10305">
        <ele>571.04670902859</ele>
        <time>2022-03-24T17:32:16.547Z</time>
      </trkpt>
      <trkpt lat="48.06945" lon="7.10339">
        <ele>569.28845242813</ele>
        <time>2022-03-24T17:32:17.020Z</time>
      </trkpt>
      <trkpt lat="48.06939" lon="7.10354">
        <ele>567.63890772951</ele>
        <time>2022-03-24T17:32:17.495Z</time>
      </trkpt>
      <trkpt lat="48.06931" lon="7.10365">
        <ele>566.00026461411</ele>
        <time>2022-03-24T17:32:17.972Z</time>
      </trkpt>
      <trkpt lat="48.06924" lon="7.10368">
        <ele>564.34788862944</ele>
        <time>2022-03-24T17:32:18.450Z</time>
      </trkpt>
      <trkpt lat="48.06913" lon="7.10369">
        <ele>562.69517636827</ele>
        <time>2022-03-24T17:32:18.930Z</time>
      </trkpt>
      <trkpt lat="48.06901" lon="7.10366">
        <ele>561.00768793582</ele>
        <time>2022-03-24T17:32:19.412Z</time>
      </trkpt>
      <trkpt lat="48.06849" lon="7.10326">
        <ele>558.94036787085</ele>
        <time>2022-03-24T17:32:19.903Z</time>
      </trkpt>
      <trkpt lat="48.06831" lon="7.10318">
        <ele>557.19065077605</ele>
        <time>2022-03-24T17:32:20.397Z</time>
      </trkpt>
      <trkpt lat="48.06822" lon="7.10317">
        <ele>555.5435522886</ele>
        <time>2022-03-24T17:32:20.892Z</time>
      </trkpt>
      <trkpt lat="48.06807" lon="7.10321">
        <ele>553.94974708479</ele>
        <time>2022-03-24T17:32:21.390Z</time>
      </trkpt>
      <trkpt lat="48.06787" lon="7.10332">
        <ele>552.43477002599</ele>
        <time>2022-03-24T17:32:21.891Z</time>
      </trkpt>
      <trkpt lat="48.06771" lon="7.10342">
        <ele>550.95320185976</ele>
        <time>2022-03-24T17:32:22.395Z</time>
      </trkpt>
      <trkpt lat="48.06762" lon="7.10348">
        <ele>549.45141106372</ele>
        <time>2022-03-24T17:32:22.901Z</time>
      </trkpt>
      <trkpt lat="48.06762" lon="7.10348">
        <ele>547.96008942012</ele>
        <time>2022-03-24T17:32:23.407Z</time>
      </trkpt>
      <trkpt lat="48.0672" lon="7.10371">
        <ele>546.41506026932</ele>
        <time>2022-03-24T17:32:23.920Z</time>
      </trkpt>
      <trkpt lat="48.06638" lon="7.1043">
        <ele>544.71257477432</ele>
        <time>2022-03-24T17:32:24.448Z</time>
      </trkpt>
      <trkpt lat="48.06621" lon="7.10437">
        <ele>543.28360248854</ele>
        <time>2022-03-24T17:32:24.978Z</time>
      </trkpt>
      <trkpt lat="48.06602" lon="7.10438">
        <ele>541.9088137212</ele>
        <time>2022-03-24T17:32:25.511Z</time>
      </trkpt>
      <trkpt lat="48.0655" lon="7.10437">
        <ele>540.41810442107</ele>
        <time>2022-03-24T17:32:26.053Z</time>
      </trkpt>
      <trkpt lat="48.06538" lon="7.10431">
        <ele>539.21654479021</ele>
        <time>2022-03-24T17:32:26.597Z</time>
      </trkpt>
      <trkpt lat="48.06501" lon="7.10407">
        <ele>537.92351111207</ele>
        <time>2022-03-24T17:32:27.147Z</time>
      </trkpt>
      <trkpt lat="48.06484" lon="7.10407">
        <ele>537.11957025774</ele>
        <time>2022-03-24T17:32:27.700Z</time>
      </trkpt>
      <trkpt lat="48.06478" lon="7.10409">
        <ele>536.44468561843</ele>
        <time>2022-03-24T17:32:28.254Z</time>
      </trkpt>
      <trkpt lat="48.06466" lon="7.10415">
        <ele>535.9436528761</ele>
        <time>2022-03-24T17:32:28.810Z</time>
      </trkpt>
      <trkpt lat="48.06468" lon="7.10423">
        <ele>535.63225922305</ele>
        <time>2022-03-24T17:32:29.367Z</time>
      </trkpt>
      <trkpt lat="48.06468" lon="7.10429">
        <ele>535.45077745609</ele>
        <time>2022-03-24T17:32:29.924Z</time>
      </trkpt>
      <trkpt lat="48.06468" lon="7.10429">
        <ele>535.36363534932</ele>
        <time>2022-03-24T17:32:30.481Z</time>
      </trkpt>
      <trkpt lat="48.06468" lon="7.10429">
        <ele>535.42403120725</ele>
        <time>2022-03-24T17:32:31.038Z</time>
      </trkpt>
      <trkpt lat="48.06456" lon="7.10454">
        <ele>535.74588724809</ele>
        <time>2022-03-24T17:32:31.599Z</time>
      </trkpt>
      <trkpt lat="48.06451" lon="7.10474">
        <ele>536.09119819107</ele>
        <time>2022-03-24T17:32:32.162Z</time>
      </trkpt>
      <trkpt lat="48.06452" lon="7.10493">
        <ele>536.58739088784</ele>
        <time>2022-03-24T17:32:32.727Z</time>
      </trkpt>
      <trkpt lat="48.06454" lon="7.10509">
        <ele>537.20395039573</ele>
        <time>2022-03-24T17:32:33.294Z</time>
      </trkpt>
      <trkpt lat="48.06461" lon="7.10526">
        <ele>537.94849213735</ele>
        <time>2022-03-24T17:32:33.863Z</time>
      </trkpt>
      <trkpt lat="48.06467" lon="7.10538">
        <ele>538.77441612714</ele>
        <time>2022-03-24T17:32:34.434Z</time>
      </trkpt>
      <trkpt lat="48.06495" lon="7.10568">
        <ele>539.81336198829</ele>
        <time>2022-03-24T17:32:35.010Z</time>
      </trkpt>
      <trkpt lat="48.06503" lon="7.10579">
        <ele>540.76469531093</ele>
        <time>2022-03-24T17:32:35.588Z</time>
      </trkpt>
      <trkpt lat="48.06507" lon="7.10583">
        <ele>541.79785387062</ele>
        <time>2022-03-24T17:32:36.167Z</time>
      </trkpt>
      <trkpt lat="48.06514" lon="7.1059">
        <ele>542.90414468581</ele>
        <time>2022-03-24T17:32:36.747Z</time>
      </trkpt>
      <trkpt lat="48.06518" lon="7.10597">
        <ele>544.05770034615</ele>
        <time>2022-03-24T17:32:37.328Z</time>
      </trkpt>
      <trkpt lat="48.06518" lon="7.10605">
        <ele>545.2755903552</ele>
        <time>2022-03-24T17:32:37.910Z</time>
      </trkpt>
      <trkpt lat="48.06515" lon="7.10615">
        <ele>546.58956497494</ele>
        <time>2022-03-24T17:32:38.493Z</time>
      </trkpt>
      <trkpt lat="48.06504" lon="7.10627">
        <ele>547.97660243976</ele>
        <time>2022-03-24T17:32:39.078Z</time>
      </trkpt>
      <trkpt lat="48.06504" lon="7.10627">
        <ele>549.36356415521</ele>
        <time>2022-03-24T17:32:39.663Z</time>
      </trkpt>
      <trkpt lat="48.06487" lon="7.10635">
        <ele>550.90003279256</ele>
        <time>2022-03-24T17:32:40.251Z</time>
      </trkpt>
      <trkpt lat="48.06404" lon="7.10661">
        <ele>552.88719610466</ele>
        <time>2022-03-24T17:32:40.853Z</time>
      </trkpt>
      <trkpt lat="48.0639" lon="7.10667">
        <ele>554.41241086369</ele>
        <time>2022-03-24T17:32:41.457Z</time>
      </trkpt>
      <trkpt lat="48.06377" lon="7.10677">
        <ele>556.05207418203</ele>
        <time>2022-03-24T17:32:42.063Z</time>
      </trkpt>
      <trkpt lat="48.06377" lon="7.10677">
        <ele>557.59259507289</ele>
        <time>2022-03-24T17:32:42.669Z</time>
      </trkpt>
      <trkpt lat="48.06375" lon="7.10684">
        <ele>559.2290527431</ele>
        <time>2022-03-24T17:32:43.276Z</time>
      </trkpt>
      <trkpt lat="48.06375" lon="7.1069">
        <ele>560.91042514293</ele>
        <time>2022-03-24T17:32:43.884Z</time>
      </trkpt>
      <trkpt lat="48.06375" lon="7.1069">
        <ele>562.49188643097</ele>
        <time>2022-03-24T17:32:44.492Z</time>
      </trkpt>
      <trkpt lat="48.06377" lon="7.10697">
        <ele>564.23511653959</ele>
        <time>2022-03-24T17:32:45.101Z</time>
      </trkpt>
      <trkpt lat="48.06382" lon="7.10702">
        <ele>565.92908505472</ele>
        <time>2022-03-24T17:32:45.711Z</time>
      </trkpt>
      <trkpt lat="48.06409" lon="7.10696">
        <ele>567.49537273783</ele>
        <time>2022-03-24T17:32:46.325Z</time>
      </trkpt>
      <trkpt lat="48.06423" lon="7.10695">
        <ele>569.11431625835</ele>
        <time>2022-03-24T17:32:46.941Z</time>
      </trkpt>
      <trkpt lat="48.06434" lon="7.10696">
        <ele>570.80755436974</ele>
        <time>2022-03-24T17:32:47.559Z</time>
      </trkpt>
      <trkpt lat="48.06455" lon="7.10709">
        <ele>572.65667365812</ele>
        <time>2022-03-24T17:32:48.181Z</time>
      </trkpt>
      <trkpt lat="48.0647" lon="7.10724">
        <ele>574.5317119913</ele>
        <time>2022-03-24T17:32:48.805Z</time>
      </trkpt>
      <trkpt lat="48.0647" lon="7.10724">
        <ele>576.24952758689</ele>
        <time>2022-03-24T17:32:49.429Z</time>
      </trkpt>
      <trkpt lat="48.06496" lon="7.10751">
        <ele>578.27644517976</ele>
        <time>2022-03-24T17:32:50.058Z</time>
      </trkpt>
      <trkpt lat="48.06507" lon="7.10756">
        <ele>580.02591286323</ele>
        <time>2022-03-24T17:32:50.689Z</time>
      </trkpt>
      <trkpt lat="48.0653" lon="7.10763">
        <ele>581.72497489213</ele>
        <time>2022-03-24T17:32:51.324Z</time>
      </trkpt>
      <trkpt lat="48.06538" lon="7.10767">
        <ele>583.48702425916</ele>
        <time>2022-03-24T17:32:51.960Z</time>
      </trkpt>
      <trkpt lat="48.06544" lon="7.10775">
        <ele>585.31815852572</ele>
        <time>2022-03-24T17:32:52.598Z</time>
      </trkpt>
      <trkpt lat="48.0657" lon="7.10812">
        <ele>587.58309321048</ele>
        <time>2022-03-24T17:32:53.241Z</time>
      </trkpt>
      <trkpt lat="48.06577" lon="7.10819">
        <ele>589.39406434484</ele>
        <time>2022-03-24T17:32:53.886Z</time>
      </trkpt>
      <trkpt lat="48.06589" lon="7.10827">
        <ele>591.19236160834</ele>
        <time>2022-03-24T17:32:54.533Z</time>
      </trkpt>
      <trkpt lat="48.06603" lon="7.10835">
        <ele>592.9410703742</ele>
        <time>2022-03-24T17:32:55.182Z</time>
      </trkpt>
      <trkpt lat="48.06675" lon="7.109">
        <ele>594.99495090309</ele>
        <time>2022-03-24T17:32:55.845Z</time>
      </trkpt>
      <trkpt lat="48.06686" lon="7.10914">
        <ele>596.54166437794</ele>
        <time>2022-03-24T17:32:56.510Z</time>
      </trkpt>
      <trkpt lat="48.06688" lon="7.10922">
        <ele>598.05501102407</ele>
        <time>2022-03-24T17:32:57.176Z</time>
      </trkpt>
      <trkpt lat="48.06687" lon="7.10928">
        <ele>599.51292354212</ele>
        <time>2022-03-24T17:32:57.843Z</time>
      </trkpt>
      <trkpt lat="48.06686" lon="7.1093">
        <ele>600.87203874784</ele>
        <time>2022-03-24T17:32:58.510Z</time>
      </trkpt>
      <trkpt lat="48.06683" lon="7.10932">
        <ele>602.17476363055</ele>
        <time>2022-03-24T17:32:59.178Z</time>
      </trkpt>
      <trkpt lat="48.0668" lon="7.10932">
        <ele>603.41815650154</ele>
        <time>2022-03-24T17:32:59.846Z</time>
      </trkpt>
      <trkpt lat="48.06656" lon="7.10912">
        <ele>604.69425992524</ele>
        <time>2022-03-24T17:33:00.518Z</time>
      </trkpt>
      <trkpt lat="48.06642" lon="7.10907">
        <ele>605.82191628532</ele>
        <time>2022-03-24T17:33:01.193Z</time>
      </trkpt>
      <trkpt lat="48.06618" lon="7.10907">
        <ele>606.97451935566</ele>
        <time>2022-03-24T17:33:01.872Z</time>
      </trkpt>
      <trkpt lat="48.06599" lon="7.10903">
        <ele>607.91754616256</ele>
        <time>2022-03-24T17:33:02.554Z</time>
      </trkpt>
      <trkpt lat="48.06595" lon="7.10905">
        <ele>608.81505969487</ele>
        <time>2022-03-24T17:33:03.236Z</time>
      </trkpt>
      <trkpt lat="48.06578" lon="7.1092">
        <ele>609.77184754802</ele>
        <time>2022-03-24T17:33:03.922Z</time>
      </trkpt>
      <trkpt lat="48.06569" lon="7.10924">
        <ele>610.62878051368</ele>
        <time>2022-03-24T17:33:04.609Z</time>
      </trkpt>
      <trkpt lat="48.0656" lon="7.10921">
        <ele>611.38659075943</ele>
        <time>2022-03-24T17:33:05.297Z</time>
      </trkpt>
      <trkpt lat="48.06542" lon="7.10908">
        <ele>612.0308776795</ele>
        <time>2022-03-24T17:33:05.989Z</time>
      </trkpt>
      <trkpt lat="48.06528" lon="7.10907">
        <ele>612.79726810527</ele>
        <time>2022-03-24T17:33:06.683Z</time>
      </trkpt>
      <trkpt lat="48.06511" lon="7.10917">
        <ele>613.60127942476</ele>
        <time>2022-03-24T17:33:07.380Z</time>
      </trkpt>
      <trkpt lat="48.06483" lon="7.10956">
        <ele>614.5554989562</ele>
        <time>2022-03-24T17:33:08.083Z</time>
      </trkpt>
      <trkpt lat="48.06476" lon="7.10974">
        <ele>615.42779782926</ele>
        <time>2022-03-24T17:33:08.788Z</time>
      </trkpt>
      <trkpt lat="48.06472" lon="7.1099">
        <ele>616.25435334561</ele>
        <time>2022-03-24T17:33:09.495Z</time>
      </trkpt>
      <trkpt lat="48.06472" lon="7.1099">
        <ele>617.04781642773</ele>
        <time>2022-03-24T17:33:10.202Z</time>
      </trkpt>
      <trkpt lat="48.06474" lon="7.10995">
        <ele>617.89674477852</ele>
        <time>2022-03-24T17:33:10.910Z</time>
      </trkpt>
      <trkpt lat="48.06475" lon="7.11006">
        <ele>618.81137301815</ele>
        <time>2022-03-24T17:33:11.619Z</time>
      </trkpt>
      <trkpt lat="48.06478" lon="7.1103">
        <ele>619.80523866579</ele>
        <time>2022-03-24T17:33:12.330Z</time>
      </trkpt>
      <trkpt lat="48.06482" lon="7.11039">
        <ele>620.79384712784</ele>
        <time>2022-03-24T17:33:13.043Z</time>
      </trkpt>
      <trkpt lat="48.06487" lon="7.1105">
        <ele>621.81652194634</ele>
        <time>2022-03-24T17:33:13.757Z</time>
      </trkpt>
      <trkpt lat="48.06494" lon="7.11053">
        <ele>622.92039955818</ele>
        <time>2022-03-24T17:33:14.472Z</time>
      </trkpt>
      <trkpt lat="48.06494" lon="7.11053">
        <ele>623.99397557599</ele>
        <time>2022-03-24T17:33:15.187Z</time>
      </trkpt>
      <trkpt lat="48.06514" lon="7.11043">
        <ele>625.22451038066</ele>
        <time>2022-03-24T17:33:15.906Z</time>
      </trkpt>
      <trkpt lat="48.06524" lon="7.11043">
        <ele>626.49367696361</ele>
        <time>2022-03-24T17:33:16.626Z</time>
      </trkpt>
      <trkpt lat="48.06557" lon="7.11052">
        <ele>628.13784215414</ele>
        <time>2022-03-24T17:33:17.351Z</time>
      </trkpt>
      <trkpt lat="48.06577" lon="7.11052">
        <ele>629.5536017382</ele>
        <time>2022-03-24T17:33:18.080Z</time>
      </trkpt>
      <trkpt lat="48.06597" lon="7.11047">
        <ele>630.90769092239</ele>
        <time>2022-03-24T17:33:18.812Z</time>
      </trkpt>
      <trkpt lat="48.06621" lon="7.11045">
        <ele>632.2034920309</ele>
        <time>2022-03-24T17:33:19.548Z</time>
      </trkpt>
      <trkpt lat="48.06636" lon="7.11049">
        <ele>633.59918526198</ele>
        <time>2022-03-24T17:33:20.286Z</time>
      </trkpt>
      <trkpt lat="48.06645" lon="7.11057">
        <ele>635.09087147522</ele>
        <time>2022-03-24T17:33:21.026Z</time>
      </trkpt>
      <trkpt lat="48.06655" lon="7.11069">
        <ele>636.68035813086</ele>
        <time>2022-03-24T17:33:21.768Z</time>
      </trkpt>
      <trkpt lat="48.06666" lon="7.11096">
        <ele>638.29338260522</ele>
        <time>2022-03-24T17:33:22.513Z</time>
      </trkpt>
      <trkpt lat="48.06674" lon="7.11126">
        <ele>639.87957316943</ele>
        <time>2022-03-24T17:33:23.262Z</time>
      </trkpt>
      <trkpt lat="48.06676" lon="7.11143">
        <ele>641.55198887631</ele>
        <time>2022-03-24T17:33:24.013Z</time>
      </trkpt>
      <trkpt lat="48.06676" lon="7.11175">
        <ele>643.33544047895</ele>
        <time>2022-03-24T17:33:24.767Z</time>
      </trkpt>
      <trkpt lat="48.06675" lon="7.11192">
        <ele>645.17383423768</ele>
        <time>2022-03-24T17:33:25.523Z</time>
      </trkpt>
      <trkpt lat="48.06654" lon="7.11297">
        <ele>647.69275055424</ele>
        <time>2022-03-24T17:33:26.291Z</time>
      </trkpt>
      <trkpt lat="48.0665" lon="7.11308">
        <ele>649.57383303597</ele>
        <time>2022-03-24T17:33:27.060Z</time>
      </trkpt>
      <trkpt lat="48.06646" lon="7.11319">
        <ele>651.45700401074</ele>
        <time>2022-03-24T17:33:27.830Z</time>
      </trkpt>
      <trkpt lat="48.0663" lon="7.11347">
        <ele>653.32906082049</ele>
        <time>2022-03-24T17:33:28.604Z</time>
      </trkpt>
      <trkpt lat="48.06624" lon="7.11371">
        <ele>655.14450693779</ele>
        <time>2022-03-24T17:33:29.381Z</time>
      </trkpt>
      <trkpt lat="48.06614" lon="7.11418">
        <ele>657.28744962591</ele>
        <time>2022-03-24T17:33:30.163Z</time>
      </trkpt>
      <trkpt lat="48.06614" lon="7.11418">
        <ele>659.19665160352</ele>
        <time>2022-03-24T17:33:30.945Z</time>
      </trkpt>
      <trkpt lat="48.06604" lon="7.11476">
        <ele>661.61071012756</ele>
        <time>2022-03-24T17:33:31.734Z</time>
      </trkpt>
      <trkpt lat="48.066" lon="7.11505">
        <ele>663.81906641531</ele>
        <time>2022-03-24T17:33:32.526Z</time>
      </trkpt>
      <trkpt lat="48.06594" lon="7.11517">
        <ele>665.77081468495</ele>
        <time>2022-03-24T17:33:33.320Z</time>
      </trkpt>
      <trkpt lat="48.06581" lon="7.11533">
        <ele>667.76728437125</ele>
        <time>2022-03-24T17:33:34.116Z</time>
      </trkpt>
      <trkpt lat="48.06552" lon="7.11559">
        <ele>669.64394663157</ele>
        <time>2022-03-24T17:33:34.918Z</time>
      </trkpt>
      <trkpt lat="48.06549" lon="7.11562">
        <ele>671.22305701406</ele>
        <time>2022-03-24T17:33:35.720Z</time>
      </trkpt>
      <trkpt lat="48.06548" lon="7.1157">
        <ele>672.78940098588</ele>
        <time>2022-03-24T17:33:36.523Z</time>
      </trkpt>
      <trkpt lat="48.06548" lon="7.1157">
        <ele>674.20501417338</ele>
        <time>2022-03-24T17:33:37.326Z</time>
      </trkpt>
      <trkpt lat="48.06549" lon="7.11575">
        <ele>675.62693649151</ele>
        <time>2022-03-24T17:33:38.130Z</time>
      </trkpt>
      <trkpt lat="48.06551" lon="7.11578">
        <ele>676.97460729526</ele>
        <time>2022-03-24T17:33:38.934Z</time>
      </trkpt>
      <trkpt lat="48.06556" lon="7.1158">
        <ele>678.2850137708</ele>
        <time>2022-03-24T17:33:39.739Z</time>
      </trkpt>
      <trkpt lat="48.06585" lon="7.11571">
        <ele>679.47874596362</ele>
        <time>2022-03-24T17:33:40.549Z</time>
      </trkpt>
      <trkpt lat="48.06599" lon="7.11572">
        <ele>680.64285239599</ele>
        <time>2022-03-24T17:33:41.361Z</time>
      </trkpt>
      <trkpt lat="48.06612" lon="7.11577">
        <ele>681.67445148766</ele>
        <time>2022-03-24T17:33:42.175Z</time>
      </trkpt>
      <trkpt lat="48.06622" lon="7.11586">
        <ele>682.78848546186</ele>
        <time>2022-03-24T17:33:42.991Z</time>
      </trkpt>
      <trkpt lat="48.06626" lon="7.11592">
        <ele>683.97800974669</ele>
        <time>2022-03-24T17:33:43.808Z</time>
      </trkpt>
      <trkpt lat="48.06633" lon="7.11605">
        <ele>685.20362820354</ele>
        <time>2022-03-24T17:33:44.627Z</time>
      </trkpt>
      <trkpt lat="48.06646" lon="7.11637">
        <ele>686.54314579892</ele>
        <time>2022-03-24T17:33:45.450Z</time>
      </trkpt>
      <trkpt lat="48.06651" lon="7.11653">
        <ele>687.92874352074</ele>
        <time>2022-03-24T17:33:46.275Z</time>
      </trkpt>
      <trkpt lat="48.06649" lon="7.11674">
        <ele>689.57927636077</ele>
        <time>2022-03-24T17:33:47.102Z</time>
      </trkpt>
      <trkpt lat="48.06636" lon="7.11724">
        <ele>691.62115769853</ele>
        <time>2022-03-24T17:33:47.935Z</time>
      </trkpt>
      <trkpt lat="48.06636" lon="7.11724">
        <ele>693.25997118977</ele>
        <time>2022-03-24T17:33:48.768Z</time>
      </trkpt>
      <trkpt lat="48.06633" lon="7.11745">
        <ele>695.11938743676</ele>
        <time>2022-03-24T17:33:49.603Z</time>
      </trkpt>
      <trkpt lat="48.06637" lon="7.1177">
        <ele>697.07814970396</ele>
        <time>2022-03-24T17:33:50.441Z</time>
      </trkpt>
      <trkpt lat="48.06637" lon="7.1177">
        <ele>699.02997576319</ele>
        <time>2022-03-24T17:33:51.279Z</time>
      </trkpt>
      <trkpt lat="48.06646" lon="7.11822">
        <ele>701.2686656211</ele>
        <time>2022-03-24T17:33:52.123Z</time>
      </trkpt>
      <trkpt lat="48.06652" lon="7.11862">
        <ele>703.74857301114</ele>
        <time>2022-03-24T17:33:52.971Z</time>
      </trkpt>
      <trkpt lat="48.06654" lon="7.11873">
        <ele>706.09151974266</ele>
        <time>2022-03-24T17:33:53.820Z</time>
      </trkpt>
      <trkpt lat="48.06659" lon="7.11879">
        <ele>708.49681179357</ele>
        <time>2022-03-24T17:33:54.670Z</time>
      </trkpt>
      <trkpt lat="48.06691" lon="7.11898">
        <ele>711.1414147197</ele>
        <time>2022-03-24T17:33:55.526Z</time>
      </trkpt>
      <trkpt lat="48.06696" lon="7.11901">
        <ele>713.77516906553</ele>
        <time>2022-03-24T17:33:56.383Z</time>
      </trkpt>
      <trkpt lat="48.06706" lon="7.11907">
        <ele>716.55085087794</ele>
        <time>2022-03-24T17:33:57.241Z</time>
      </trkpt>
      <trkpt lat="48.06756" lon="7.11915">
        <ele>719.68605165515</ele>
        <time>2022-03-24T17:33:58.107Z</time>
      </trkpt>
      <trkpt lat="48.06768" lon="7.11918">
        <ele>722.57578381705</ele>
        <time>2022-03-24T17:33:58.975Z</time>
      </trkpt>
      <trkpt lat="48.06786" lon="7.11933">
        <ele>725.64172879588</ele>
        <time>2022-03-24T17:33:59.847Z</time>
      </trkpt>
      <trkpt lat="48.06805" lon="7.11955">
        <ele>728.85661922724</ele>
        <time>2022-03-24T17:34:00.722Z</time>
      </trkpt>
      <trkpt lat="48.06818" lon="7.1196">
        <ele>731.91103364261</ele>
        <time>2022-03-24T17:34:01.600Z</time>
      </trkpt>
      <trkpt lat="48.06836" lon="7.11961">
        <ele>734.90923880871</ele>
        <time>2022-03-24T17:34:02.481Z</time>
      </trkpt>
      <trkpt lat="48.0685" lon="7.11966">
        <ele>737.94768322612</ele>
        <time>2022-03-24T17:34:03.364Z</time>
      </trkpt>
      <trkpt lat="48.06861" lon="7.11972">
        <ele>740.97636199938</ele>
        <time>2022-03-24T17:34:04.249Z</time>
      </trkpt>
      <trkpt lat="48.06905" lon="7.12007">
        <ele>744.2922155398</ele>
        <time>2022-03-24T17:34:05.142Z</time>
      </trkpt>
      <trkpt lat="48.06918" lon="7.12024">
        <ele>747.34286723024</ele>
        <time>2022-03-24T17:34:06.037Z</time>
      </trkpt>
      <trkpt lat="48.06931" lon="7.12046">
        <ele>750.38698740387</ele>
        <time>2022-03-24T17:34:06.936Z</time>
      </trkpt>
      <trkpt lat="48.06961" lon="7.12086">
        <ele>753.42106215311</ele>
        <time>2022-03-24T17:34:07.841Z</time>
      </trkpt>
      <trkpt lat="48.06981" lon="7.12107">
        <ele>755.99041988621</ele>
        <time>2022-03-24T17:34:08.750Z</time>
      </trkpt>
      <trkpt lat="48.06998" lon="7.12146">
        <ele>758.69527091534</ele>
        <time>2022-03-24T17:34:09.664Z</time>
      </trkpt>
      <trkpt lat="48.07027" lon="7.12188">
        <ele>761.10676000325</ele>
        <time>2022-03-24T17:34:10.584Z</time>
      </trkpt>
      <trkpt lat="48.07053" lon="7.12217">
        <ele>762.9309227059</ele>
        <time>2022-03-24T17:34:11.510Z</time>
      </trkpt>
      <trkpt lat="48.07069" lon="7.12228">
        <ele>764.46392103805</ele>
        <time>2022-03-24T17:34:12.438Z</time>
      </trkpt>
      <trkpt lat="48.07105" lon="7.12238">
        <ele>765.78888069482</ele>
        <time>2022-03-24T17:34:13.372Z</time>
      </trkpt>
      <trkpt lat="48.07141" lon="7.12243">
        <ele>766.96340566284</ele>
        <time>2022-03-24T17:34:14.312Z</time>
      </trkpt>
      <trkpt lat="48.07141" lon="7.12243">
        <ele>767.89362881061</ele>
        <time>2022-03-24T17:34:15.252Z</time>
      </trkpt>
      <trkpt lat="48.07144" lon="7.12243">
        <ele>768.58689447333</ele>
        <time>2022-03-24T17:34:16.193Z</time>
      </trkpt>
      <trkpt lat="48.07151" lon="7.12243">
        <ele>769.03274323644</ele>
        <time>2022-03-24T17:34:17.135Z</time>
      </trkpt>
      <trkpt lat="48.07151" lon="7.12243">
        <ele>769.28859825334</ele>
        <time>2022-03-24T17:34:18.077Z</time>
      </trkpt>
      <trkpt lat="48.07167" lon="7.12236">
        <ele>769.32003428566</ele>
        <time>2022-03-24T17:34:19.021Z</time>
      </trkpt>
      <trkpt lat="48.0718" lon="7.1223">
        <ele>769.19269337486</ele>
        <time>2022-03-24T17:34:19.967Z</time>
      </trkpt>
      <trkpt lat="48.07185" lon="7.12225">
        <ele>768.83691983458</ele>
        <time>2022-03-24T17:34:20.914Z</time>
      </trkpt>
      <trkpt lat="48.07189" lon="7.12219">
        <ele>768.27593376733</ele>
        <time>2022-03-24T17:34:21.862Z</time>
      </trkpt>
      <trkpt lat="48.072" lon="7.12186">
        <ele>767.30628875503</ele>
        <time>2022-03-24T17:34:22.814Z</time>
      </trkpt>
      <trkpt lat="48.072" lon="7.12186">
        <ele>766.46677155291</ele>
        <time>2022-03-24T17:34:23.766Z</time>
      </trkpt>
      <trkpt lat="48.07212" lon="7.12161">
        <ele>765.31639604132</ele>
        <time>2022-03-24T17:34:24.722Z</time>
      </trkpt>
      <trkpt lat="48.0722" lon="7.12151">
        <ele>764.14344281401</ele>
        <time>2022-03-24T17:34:25.679Z</time>
      </trkpt>
      <trkpt lat="48.07234" lon="7.12136">
        <ele>762.86089502279</ele>
        <time>2022-03-24T17:34:26.639Z</time>
      </trkpt>
      <trkpt lat="48.07262" lon="7.12118">
        <ele>761.58928885163</ele>
        <time>2022-03-24T17:34:27.604Z</time>
      </trkpt>
      <trkpt lat="48.0727" lon="7.12104">
        <ele>760.20589925957</ele>
        <time>2022-03-24T17:34:28.571Z</time>
      </trkpt>
      <trkpt lat="48.0727" lon="7.12094">
        <ele>758.67331967653</ele>
        <time>2022-03-24T17:34:29.539Z</time>
      </trkpt>
      <trkpt lat="48.07267" lon="7.12083">
        <ele>757.02891083553</ele>
        <time>2022-03-24T17:34:30.508Z</time>
      </trkpt>
      <trkpt lat="48.07262" lon="7.12075">
        <ele>755.27914182501</ele>
        <time>2022-03-24T17:34:31.478Z</time>
      </trkpt>
      <trkpt lat="48.07242" lon="7.12056">
        <ele>753.37995777755</ele>
        <time>2022-03-24T17:34:32.452Z</time>
      </trkpt>
      <trkpt lat="48.0722" lon="7.12033">
        <ele>751.3124105084</ele>
        <time>2022-03-24T17:34:33.430Z</time>
      </trkpt>
      <trkpt lat="48.07197" lon="7.11994">
        <ele>748.99566727406</ele>
        <time>2022-03-24T17:34:34.414Z</time>
      </trkpt>
      <trkpt lat="48.0719" lon="7.11963">
        <ele>747.03583408214</ele>
        <time>2022-03-24T17:34:35.402Z</time>
      </trkpt>
      <trkpt lat="48.07189" lon="7.11942">
        <ele>745.16782778798</ele>
        <time>2022-03-24T17:34:36.392Z</time>
      </trkpt>
      <trkpt lat="48.07185" lon="7.11917">
        <ele>743.16138994163</ele>
        <time>2022-03-24T17:34:37.385Z</time>
      </trkpt>
      <trkpt lat="48.0718" lon="7.11845">
        <ele>741.10669197736</ele>
        <time>2022-03-24T17:34:38.385Z</time>
      </trkpt>
      <trkpt lat="48.07177" lon="7.11834">
        <ele>738.93569094486</ele>
        <time>2022-03-24T17:34:39.387Z</time>
      </trkpt>
      <trkpt lat="48.07177" lon="7.11834">
        <ele>736.71040049814</ele>
        <time>2022-03-24T17:34:40.389Z</time>
      </trkpt>
      <trkpt lat="48.0716" lon="7.1181">
        <ele>734.0228930812</ele>
        <time>2022-03-24T17:34:41.394Z</time>
      </trkpt>
      <trkpt lat="48.07149" lon="7.11785">
        <ele>731.50434384185</ele>
        <time>2022-03-24T17:34:42.403Z</time>
      </trkpt>
      <trkpt lat="48.07143" lon="7.11762">
        <ele>728.97019065514</ele>
        <time>2022-03-24T17:34:43.414Z</time>
      </trkpt>
      <trkpt lat="48.07141" lon="7.11745">
        <ele>726.45081301246</ele>
        <time>2022-03-24T17:34:44.427Z</time>
      </trkpt>
      <trkpt lat="48.07141" lon="7.11695">
        <ele>723.88572458641</ele>
        <time>2022-03-24T17:34:45.445Z</time>
      </trkpt>
      <trkpt lat="48.07138" lon="7.1166">
        <ele>721.22305947611</ele>
        <time>2022-03-24T17:34:46.467Z</time>
      </trkpt>
      <trkpt lat="48.07133" lon="7.11607">
        <ele>718.13894129237</ele>
        <time>2022-03-24T17:34:47.495Z</time>
      </trkpt>
      <trkpt lat="48.07129" lon="7.1158">
        <ele>715.1415120762</ele>
        <time>2022-03-24T17:34:48.526Z</time>
      </trkpt>
      <trkpt lat="48.07125" lon="7.11558">
        <ele>712.24929791105</ele>
        <time>2022-03-24T17:34:49.559Z</time>
      </trkpt>
      <trkpt lat="48.07124" lon="7.11535">
        <ele>709.47893602447</ele>
        <time>2022-03-24T17:34:50.595Z</time>
      </trkpt>
      <trkpt lat="48.07124" lon="7.11446">
        <ele>706.37134124286</ele>
        <time>2022-03-24T17:34:51.640Z</time>
      </trkpt>
      <trkpt lat="48.07124" lon="7.11446">
        <ele>703.65994164746</ele>
        <time>2022-03-24T17:34:52.685Z</time>
      </trkpt>
      <trkpt lat="48.07125" lon="7.11404">
        <ele>700.76670142687</ele>
        <time>2022-03-24T17:34:53.735Z</time>
      </trkpt>
      <trkpt lat="48.07128" lon="7.11383">
        <ele>698.00916570414</ele>
        <time>2022-03-24T17:34:54.787Z</time>
      </trkpt>
      <trkpt lat="48.07138" lon="7.1134">
        <ele>695.38010436502</ele>
        <time>2022-03-24T17:34:55.844Z</time>
      </trkpt>
      <trkpt lat="48.07147" lon="7.11296">
        <ele>692.51743206825</ele>
        <time>2022-03-24T17:34:56.906Z</time>
      </trkpt>
      <trkpt lat="48.07148" lon="7.11282">
        <ele>689.85463795172</ele>
        <time>2022-03-24T17:34:57.970Z</time>
      </trkpt>
      <trkpt lat="48.07148" lon="7.11207">
        <ele>686.92319230939</ele>
        <time>2022-03-24T17:34:59.042Z</time>
      </trkpt>
      <trkpt lat="48.07146" lon="7.11198">
        <ele>684.42975228615</ele>
        <time>2022-03-24T17:35:00.115Z</time>
      </trkpt>
      <trkpt lat="48.0714" lon="7.11192">
        <ele>681.97789461072</ele>
        <time>2022-03-24T17:35:01.189Z</time>
      </trkpt>
      <trkpt lat="48.07133" lon="7.11192">
        <ele>679.63822004475</ele>
        <time>2022-03-24T17:35:02.264Z</time>
      </trkpt>
      <trkpt lat="48.07099" lon="7.11223">
        <ele>677.24016973498</ele>
        <time>2022-03-24T17:35:03.345Z</time>
      </trkpt>
      <trkpt lat="48.0709" lon="7.11226">
        <ele>675.03435757904</ele>
        <time>2022-03-24T17:35:04.428Z</time>
      </trkpt>
      <trkpt lat="48.07082" lon="7.11222">
        <ele>672.90494950776</ele>
        <time>2022-03-24T17:35:05.512Z</time>
      </trkpt>
      <trkpt lat="48.07082" lon="7.11222">
        <ele>670.99182820362</ele>
        <time>2022-03-24T17:35:06.596Z</time>
      </trkpt>
      <trkpt lat="48.07038" lon="7.11173">
        <ele>668.68651362793</ele>
        <time>2022-03-24T17:35:07.689Z</time>
      </trkpt>
      <trkpt lat="48.06982" lon="7.11123">
        <ele>666.66678600918</ele>
        <time>2022-03-24T17:35:08.792Z</time>
      </trkpt>
      <trkpt lat="48.06976" lon="7.11115">
        <ele>665.03127889953</ele>
        <time>2022-03-24T17:35:09.897Z</time>
      </trkpt>
      <trkpt lat="48.06976" lon="7.11115">
        <ele>663.52083443297</ele>
        <time>2022-03-24T17:35:11.002Z</time>
      </trkpt>
      <trkpt lat="48.06974" lon="7.11109">
        <ele>662.09284387793</ele>
        <time>2022-03-24T17:35:12.107Z</time>
      </trkpt>
      <trkpt lat="48.06965" lon="7.11087">
        <ele>660.71847367574</ele>
        <time>2022-03-24T17:35:13.215Z</time>
      </trkpt>
      <trkpt lat="48.06953" lon="7.11053">
        <ele>659.44408070426</ele>
        <time>2022-03-24T17:35:14.327Z</time>
      </trkpt>
      <trkpt lat="48.06949" lon="7.11041">
        <ele>658.24236292122</ele>
        <time>2022-03-24T17:35:15.441Z</time>
      </trkpt>
      <trkpt lat="48.06942" lon="7.11015">
        <ele>657.0801738629</ele>
        <time>2022-03-24T17:35:16.558Z</time>
      </trkpt>
      <trkpt lat="48.06939" lon="7.10995">
        <ele>655.93696201405</ele>
        <time>2022-03-24T17:35:17.677Z</time>
      </trkpt>
      <trkpt lat="48.06939" lon="7.1099">
        <ele>654.81220706367</ele>
        <time>2022-03-24T17:35:18.797Z</time>
      </trkpt>
      <trkpt lat="48.06939" lon="7.10988">
        <ele>653.69430819028</ele>
        <time>2022-03-24T17:35:19.917Z</time>
      </trkpt>
      <trkpt lat="48.06939" lon="7.10979">
        <ele>652.51890887406</ele>
        <time>2022-03-24T17:35:21.038Z</time>
      </trkpt>
      <trkpt lat="48.0694" lon="7.10941">
        <ele>651.14067597347</ele>
        <time>2022-03-24T17:35:22.163Z</time>
      </trkpt>
      <trkpt lat="48.06938" lon="7.10914">
        <ele>649.81572828197</ele>
        <time>2022-03-24T17:35:23.291Z</time>
      </trkpt>
      <trkpt lat="48.06935" lon="7.10881">
        <ele>648.48638708116</ele>
        <time>2022-03-24T17:35:24.422Z</time>
      </trkpt>
      <trkpt lat="48.06928" lon="7.10844">
        <ele>647.18198998113</ele>
        <time>2022-03-24T17:35:25.557Z</time>
      </trkpt>
      <trkpt lat="48.06925" lon="7.10825">
        <ele>645.96254907344</ele>
        <time>2022-03-24T17:35:26.694Z</time>
      </trkpt>
      <trkpt lat="48.06925" lon="7.10817">
        <ele>644.74394643723</ele>
        <time>2022-03-24T17:35:27.832Z</time>
      </trkpt>
      <trkpt lat="48.06926" lon="7.10808">
        <ele>643.47058922809</ele>
        <time>2022-03-24T17:35:28.971Z</time>
      </trkpt>
      <trkpt lat="48.06941" lon="7.10785">
        <ele>642.12595650226</ele>
        <time>2022-03-24T17:35:30.114Z</time>
      </trkpt>
      <trkpt lat="48.06956" lon="7.10765">
        <ele>640.73179694645</ele>
        <time>2022-03-24T17:35:31.260Z</time>
      </trkpt>
      <trkpt lat="48.06971" lon="7.10737">
        <ele>639.20787925573</ele>
        <time>2022-03-24T17:35:32.410Z</time>
      </trkpt>
      <trkpt lat="48.06979" lon="7.10725">
        <ele>637.75643303428</ele>
        <time>2022-03-24T17:35:33.562Z</time>
      </trkpt>
      <trkpt lat="48.0699" lon="7.1072">
        <ele>636.34402339236</ele>
        <time>2022-03-24T17:35:34.715Z</time>
      </trkpt>
      <trkpt lat="48.0701" lon="7.10719">
        <ele>634.80973262865</ele>
        <time>2022-03-24T17:35:35.872Z</time>
      </trkpt>
      <trkpt lat="48.07046" lon="7.10732">
        <ele>633.18103612746</ele>
        <time>2022-03-24T17:35:37.035Z</time>
      </trkpt>
      <trkpt lat="48.07071" lon="7.10741">
        <ele>631.56133414203</ele>
        <time>2022-03-24T17:35:38.202Z</time>
      </trkpt>
      <trkpt lat="48.07095" lon="7.10755">
        <ele>629.96953254432</ele>
        <time>2022-03-24T17:35:39.373Z</time>
      </trkpt>
      <trkpt lat="48.07097" lon="7.10754">
        <ele>628.45801915679</ele>
        <time>2022-03-24T17:35:40.544Z</time>
      </trkpt>
      <trkpt lat="48.07097" lon="7.10754">
        <ele>626.95268051301</ele>
        <time>2022-03-24T17:35:41.715Z</time>
      </trkpt>
      <trkpt lat="48.07098" lon="7.10753">
        <ele>625.393453362</ele>
        <time>2022-03-24T17:35:42.886Z</time>
      </trkpt>
      <trkpt lat="48.07098" lon="7.10753">
        <ele>623.81638896678</ele>
        <time>2022-03-24T17:35:44.057Z</time>
      </trkpt>
      <trkpt lat="48.07099" lon="7.10748">
        <ele>622.13517258876</ele>
        <time>2022-03-24T17:35:45.229Z</time>
      </trkpt>
      <trkpt lat="48.07097" lon="7.1074">
        <ele>620.4192124</ele>
        <time>2022-03-24T17:35:46.402Z</time>
      </trkpt>
      <trkpt lat="48.0708" lon="7.10718">
        <ele>618.62600648351</ele>
        <time>2022-03-24T17:35:47.579Z</time>
      </trkpt>
      <trkpt lat="48.07068" lon="7.107">
        <ele>616.77470053789</ele>
        <time>2022-03-24T17:35:48.758Z</time>
      </trkpt>
      <trkpt lat="48.07052" lon="7.10679">
        <ele>614.87781282128</ele>
        <time>2022-03-24T17:35:49.941Z</time>
      </trkpt>
      <trkpt lat="48.07038" lon="7.10658">
        <ele>612.85931861788</ele>
        <time>2022-03-24T17:35:51.127Z</time>
      </trkpt>
      <trkpt lat="48.07023" lon="7.1063">
        <ele>610.67238085931</ele>
        <time>2022-03-24T17:35:52.317Z</time>
      </trkpt>
      <trkpt lat="48.07008" lon="7.10617">
        <ele>608.56407152545</ele>
        <time>2022-03-24T17:35:53.509Z</time>
      </trkpt>
      <trkpt lat="48.06977" lon="7.10584">
        <ele>606.22227983108</ele>
        <time>2022-03-24T17:35:54.708Z</time>
      </trkpt>
      <trkpt lat="48.06975" lon="7.10579">
        <ele>604.07007725297</ele>
        <time>2022-03-24T17:35:55.907Z</time>
      </trkpt>
      <trkpt lat="48.06956" lon="7.10562">
        <ele>601.82528217494</ele>
        <time>2022-03-24T17:35:57.110Z</time>
      </trkpt>
      <trkpt lat="48.06889" lon="7.10537">
        <ele>599.34278412674</ele>
        <time>2022-03-24T17:35:58.324Z</time>
      </trkpt>
      <trkpt lat="48.06876" lon="7.10529">
        <ele>597.05328960871</ele>
        <time>2022-03-24T17:35:59.540Z</time>
      </trkpt>
      <trkpt lat="48.06845" lon="7.10512">
        <ele>594.63458418038</ele>
        <time>2022-03-24T17:36:00.761Z</time>
      </trkpt>
      <trkpt lat="48.06827" lon="7.10504">
        <ele>592.28954151192</ele>
        <time>2022-03-24T17:36:01.985Z</time>
      </trkpt>
      <trkpt lat="48.06827" lon="7.10504">
        <ele>590.2020708183</ele>
        <time>2022-03-24T17:36:03.209Z</time>
      </trkpt>
      <trkpt lat="48.0682" lon="7.10504">
        <ele>588.10361158902</ele>
        <time>2022-03-24T17:36:04.434Z</time>
      </trkpt>
      <trkpt lat="48.06793" lon="7.10512">
        <ele>585.94891747766</ele>
        <time>2022-03-24T17:36:05.664Z</time>
      </trkpt>
      <trkpt lat="48.06778" lon="7.10516">
        <ele>583.9402718696</ele>
        <time>2022-03-24T17:36:06.896Z</time>
      </trkpt>
      <trkpt lat="48.0677" lon="7.10516">
        <ele>582.00724696908</ele>
        <time>2022-03-24T17:36:08.130Z</time>
      </trkpt>
      <trkpt lat="48.06764" lon="7.10511">
        <ele>580.14212363374</ele>
        <time>2022-03-24T17:36:09.365Z</time>
      </trkpt>
      <trkpt lat="48.06762" lon="7.10504">
        <ele>578.36560429085</ele>
        <time>2022-03-24T17:36:10.600Z</time>
      </trkpt>
      <trkpt lat="48.06762" lon="7.10504">
        <ele>576.70062069135</ele>
        <time>2022-03-24T17:36:11.835Z</time>
      </trkpt>
      <trkpt lat="48.06763" lon="7.10491">
        <ele>575.06150956354</ele>
        <time>2022-03-24T17:36:13.072Z</time>
      </trkpt>
      <trkpt lat="48.06775" lon="7.10472">
        <ele>573.52227956156</ele>
        <time>2022-03-24T17:36:14.312Z</time>
      </trkpt>
      <trkpt lat="48.06775" lon="7.10472">
        <ele>572.10145133393</ele>
        <time>2022-03-24T17:36:15.552Z</time>
      </trkpt>
      <trkpt lat="48.06824" lon="7.10405">
        <ele>570.31314309713</ele>
        <time>2022-03-24T17:36:16.802Z</time>
      </trkpt>
      <trkpt lat="48.06824" lon="7.10405">
        <ele>569.08746872154</ele>
        <time>2022-03-24T17:36:18.052Z</time>
      </trkpt>
      <trkpt lat="48.06831" lon="7.10399">
        <ele>567.91578193531</ele>
        <time>2022-03-24T17:36:19.303Z</time>
      </trkpt>
      <trkpt lat="48.06842" lon="7.10393">
        <ele>566.84381653026</ele>
        <time>2022-03-24T17:36:20.556Z</time>
      </trkpt>
      <trkpt lat="48.06848" lon="7.1039">
        <ele>565.91701952031</ele>
        <time>2022-03-24T17:36:21.810Z</time>
      </trkpt>
      <trkpt lat="48.06862" lon="7.10387">
        <ele>565.10575748547</ele>
        <time>2022-03-24T17:36:23.067Z</time>
      </trkpt>
      <trkpt lat="48.06873" lon="7.10386">
        <ele>564.44684100195</ele>
        <time>2022-03-24T17:36:24.325Z</time>
      </trkpt>
      <trkpt lat="48.0691" lon="7.1039">
        <ele>563.87970794804</ele>
        <time>2022-03-24T17:36:25.589Z</time>
      </trkpt>
      <trkpt lat="48.06927" lon="7.10388">
        <ele>563.53817999942</ele>
        <time>2022-03-24T17:36:26.856Z</time>
      </trkpt>
      <trkpt lat="48.0693" lon="7.10386">
        <ele>563.32379859345</ele>
        <time>2022-03-24T17:36:28.124Z</time>
      </trkpt>
      <trkpt lat="48.06932" lon="7.1038">
        <ele>563.22200170772</ele>
        <time>2022-03-24T17:36:29.392Z</time>
      </trkpt>
      <trkpt lat="48.06932" lon="7.1038">
        <ele>563.29806264499</ele>
        <time>2022-03-24T17:36:30.660Z</time>
      </trkpt>
      <trkpt lat="48.06932" lon="7.1038">
        <ele>563.22200170772</ele>
        <time>2022-03-24T17:36:31.928Z</time>
      </trkpt>
      <trkpt lat="48.06931" lon="7.10365">
        <ele>566.00026461411</ele>
        <time>2022-03-24T17:36:33.198Z</time>
      </trkpt>
      <trkpt lat="48.06939" lon="7.10354">
        <ele>567.63890772951</ele>
        <time>2022-03-24T17:36:34.470Z</time>
      </trkpt>
      <trkpt lat="48.06945" lon="7.10339">
        <ele>569.28845242813</ele>
        <time>2022-03-24T17:36:35.744Z</time>
      </trkpt>
      <trkpt lat="48.06955" lon="7.10305">
        <ele>571.04670902859</ele>
        <time>2022-03-24T17:36:37.022Z</time>
      </trkpt>
      <trkpt lat="48.06955" lon="7.10305">
        <ele>572.56284156207</ele>
        <time>2022-03-24T17:36:38.300Z</time>
      </trkpt>
      <trkpt lat="48.06966" lon="7.1028">
        <ele>574.12099739428</ele>
        <time>2022-03-24T17:36:39.581Z</time>
      </trkpt>
      <trkpt lat="48.06981" lon="7.10254">
        <ele>575.55006220757</ele>
        <time>2022-03-24T17:36:40.865Z</time>
      </trkpt>
      <trkpt lat="48.07" lon="7.10233">
        <ele>577.00209094739</ele>
        <time>2022-03-24T17:36:42.153Z</time>
      </trkpt>
      <trkpt lat="48.07063" lon="7.10162">
        <ele>578.80216208614</ele>
        <time>2022-03-24T17:36:43.454Z</time>
      </trkpt>
      <trkpt lat="48.07063" lon="7.10162">
        <ele>580.06381952261</ele>
        <time>2022-03-24T17:36:44.755Z</time>
      </trkpt>
      <trkpt lat="48.0711" lon="7.1011">
        <ele>581.64734650162</ele>
        <time>2022-03-24T17:36:46.065Z</time>
      </trkpt>
      <trkpt lat="48.07136" lon="7.10062">
        <ele>582.40815036078</ele>
        <time>2022-03-24T17:36:47.382Z</time>
      </trkpt>
      <trkpt lat="48.07142" lon="7.10057">
        <ele>583.48740322685</ele>
        <time>2022-03-24T17:36:48.700Z</time>
      </trkpt>
      <trkpt lat="48.07148" lon="7.10054">
        <ele>584.51726721455</ele>
        <time>2022-03-24T17:36:50.019Z</time>
      </trkpt>
      <trkpt lat="48.07158" lon="7.10052">
        <ele>585.50720677407</ele>
        <time>2022-03-24T17:36:51.340Z</time>
      </trkpt>
      <trkpt lat="48.07171" lon="7.10056">
        <ele>586.44940731792</ele>
        <time>2022-03-24T17:36:52.663Z</time>
      </trkpt>
      <trkpt lat="48.07187" lon="7.10063">
        <ele>587.32880705953</ele>
        <time>2022-03-24T17:36:53.988Z</time>
      </trkpt>
      <trkpt lat="48.07191" lon="7.10066">
        <ele>588.0175176569</ele>
        <time>2022-03-24T17:36:55.314Z</time>
      </trkpt>
      <trkpt lat="48.07233" lon="7.10086">
        <ele>588.81651019251</ele>
        <time>2022-03-24T17:36:56.647Z</time>
      </trkpt>
      <trkpt lat="48.07259" lon="7.10096">
        <ele>589.45095304411</ele>
        <time>2022-03-24T17:36:57.984Z</time>
      </trkpt>
      <trkpt lat="48.07271" lon="7.10093">
        <ele>589.9425074641</ele>
        <time>2022-03-24T17:36:59.323Z</time>
      </trkpt>
      <trkpt lat="48.07284" lon="7.10082">
        <ele>590.32872756924</ele>
        <time>2022-03-24T17:37:00.665Z</time>
      </trkpt>
      <trkpt lat="48.07286" lon="7.10079">
        <ele>590.7465926877</ele>
        <time>2022-03-24T17:37:02.007Z</time>
      </trkpt>
      <trkpt lat="48.0729" lon="7.1007">
        <ele>591.09948845297</ele>
        <time>2022-03-24T17:37:03.350Z</time>
      </trkpt>
      <trkpt lat="48.07292" lon="7.10058">
        <ele>591.47516016017</ele>
        <time>2022-03-24T17:37:04.695Z</time>
      </trkpt>
      <trkpt lat="48.07338" lon="7.10068">
        <ele>597.89568964292</ele>
        <time>2022-03-24T17:37:06.047Z</time>
      </trkpt>
      <trkpt lat="48.07366" lon="7.10068">
        <ele>599.62854510866</ele>
        <time>2022-03-24T17:37:07.404Z</time>
      </trkpt>
      <trkpt lat="48.0741" lon="7.10073">
        <ele>601.49692633361</ele>
        <time>2022-03-24T17:37:08.768Z</time>
      </trkpt>
      <trkpt lat="48.07435" lon="7.10073">
        <ele>603.37446462208</ele>
        <time>2022-03-24T17:37:10.136Z</time>
      </trkpt>
      <trkpt lat="48.07443" lon="7.10071">
        <ele>605.10009132425</ele>
        <time>2022-03-24T17:37:11.505Z</time>
      </trkpt>
      <trkpt lat="48.07469" lon="7.1006">
        <ele>606.84505840028</ele>
        <time>2022-03-24T17:37:12.878Z</time>
      </trkpt>
      <trkpt lat="48.07514" lon="7.10044">
        <ele>608.60320913241</ele>
        <time>2022-03-24T17:37:14.259Z</time>
      </trkpt>
      <trkpt lat="48.07593" lon="7.10035">
        <ele>611.09002320095</ele>
        <time>2022-03-24T17:37:15.652Z</time>
      </trkpt>
      <trkpt lat="48.07622" lon="7.10023">
        <ele>612.97495764715</ele>
        <time>2022-03-24T17:37:17.050Z</time>
      </trkpt>
      <trkpt lat="48.07647" lon="7.10004">
        <ele>614.81025155985</ele>
        <time>2022-03-24T17:37:18.453Z</time>
      </trkpt>
      <trkpt lat="48.07713" lon="7.09945">
        <ele>616.67931467828</ele>
        <time>2022-03-24T17:37:19.868Z</time>
      </trkpt>
      <trkpt lat="48.07726" lon="7.0993">
        <ele>618.50127408102</ele>
        <time>2022-03-24T17:37:21.286Z</time>
      </trkpt>
      <trkpt lat="48.07742" lon="7.09897">
        <ele>620.41789911002</ele>
        <time>2022-03-24T17:37:22.708Z</time>
      </trkpt>
      <trkpt lat="48.07767" lon="7.09853">
        <ele>622.31477106335</ele>
        <time>2022-03-24T17:37:24.136Z</time>
      </trkpt>
      <trkpt lat="48.07775" lon="7.09842">
        <ele>624.20185180981</ele>
        <time>2022-03-24T17:37:25.566Z</time>
      </trkpt>
      <trkpt lat="48.07784" lon="7.09836">
        <ele>626.10094289145</ele>
        <time>2022-03-24T17:37:26.998Z</time>
      </trkpt>
      <trkpt lat="48.078" lon="7.09833">
        <ele>628.06541133441</ele>
        <time>2022-03-24T17:37:28.432Z</time>
      </trkpt>
      <trkpt lat="48.07802" lon="7.09826">
        <ele>630.03102291472</ele>
        <time>2022-03-24T17:37:29.867Z</time>
      </trkpt>
      <trkpt lat="48.07807" lon="7.09821">
        <ele>632.07186333763</ele>
        <time>2022-03-24T17:37:31.303Z</time>
      </trkpt>
      <trkpt lat="48.07807" lon="7.09821">
        <ele>634.11227612578</ele>
        <time>2022-03-24T17:37:32.739Z</time>
      </trkpt>
      <trkpt lat="48.07847" lon="7.09783">
        <ele>636.63298527776</ele>
        <time>2022-03-24T17:37:34.182Z</time>
      </trkpt>
      <trkpt lat="48.07896" lon="7.09729">
        <ele>638.95261334424</ele>
        <time>2022-03-24T17:37:35.635Z</time>
      </trkpt>
      <trkpt lat="48.07918" lon="7.09707">
        <ele>641.3298646329</ele>
        <time>2022-03-24T17:37:37.092Z</time>
      </trkpt>
      <trkpt lat="48.07967" lon="7.09685">
        <ele>643.95718320416</ele>
        <time>2022-03-24T17:37:38.558Z</time>
      </trkpt>
      <trkpt lat="48.07969" lon="7.09684">
        <ele>646.28233521447</ele>
        <time>2022-03-24T17:37:40.024Z</time>
      </trkpt>
      <trkpt lat="48.07969" lon="7.09684">
        <ele>648.65950896977</ele>
        <time>2022-03-24T17:37:41.490Z</time>
      </trkpt>
      <trkpt lat="48.08001" lon="7.0967">
        <ele>651.24849040485</ele>
        <time>2022-03-24T17:37:42.961Z</time>
      </trkpt>
      <trkpt lat="48.08039" lon="7.09647">
        <ele>653.79326335789</ele>
        <time>2022-03-24T17:37:44.439Z</time>
      </trkpt>
      <trkpt lat="48.08079" lon="7.09644">
        <ele>656.49804167758</ele>
        <time>2022-03-24T17:37:45.923Z</time>
      </trkpt>
      <trkpt lat="48.08091" lon="7.09641">
        <ele>659.16268177849</ele>
        <time>2022-03-24T17:37:47.409Z</time>
      </trkpt>
      <trkpt lat="48.08131" lon="7.09604">
        <ele>662.219116966</ele>
        <time>2022-03-24T17:37:48.903Z</time>
      </trkpt>
      <trkpt lat="48.08135" lon="7.09596">
        <ele>664.97111485972</ele>
        <time>2022-03-24T17:37:50.398Z</time>
      </trkpt>
      <trkpt lat="48.08155" lon="7.09502">
        <ele>668.05600855799</ele>
        <time>2022-03-24T17:37:51.903Z</time>
      </trkpt>
      <trkpt lat="48.08155" lon="7.09502">
        <ele>670.78256842724</ele>
        <time>2022-03-24T17:37:53.408Z</time>
      </trkpt>
      <trkpt lat="48.08167" lon="7.09448">
        <ele>673.84708350264</ele>
        <time>2022-03-24T17:37:54.920Z</time>
      </trkpt>
      <trkpt lat="48.08174" lon="7.0943">
        <ele>676.64043715074</ele>
        <time>2022-03-24T17:37:56.434Z</time>
      </trkpt>
      <trkpt lat="48.08194" lon="7.09408">
        <ele>679.5045383926</ele>
        <time>2022-03-24T17:37:57.952Z</time>
      </trkpt>
      <trkpt lat="48.08264" lon="7.09341">
        <ele>682.92331144236</ele>
        <time>2022-03-24T17:37:59.483Z</time>
      </trkpt>
      <trkpt lat="48.08272" lon="7.09327">
        <ele>685.79552350572</ele>
        <time>2022-03-24T17:38:01.016Z</time>
      </trkpt>
      <trkpt lat="48.08273" lon="7.09316">
        <ele>688.52845826553</ele>
        <time>2022-03-24T17:38:02.550Z</time>
      </trkpt>
      <trkpt lat="48.08272" lon="7.09302">
        <ele>691.21858278332</ele>
        <time>2022-03-24T17:38:04.086Z</time>
      </trkpt>
      <trkpt lat="48.08261" lon="7.09274">
        <ele>693.90881516405</ele>
        <time>2022-03-24T17:38:05.625Z</time>
      </trkpt>
      <trkpt lat="48.08261" lon="7.09274">
        <ele>696.48358879868</ele>
        <time>2022-03-24T17:38:07.164Z</time>
      </trkpt>
      <trkpt lat="48.08253" lon="7.0925">
        <ele>699.15610542178</ele>
        <time>2022-03-24T17:38:08.706Z</time>
      </trkpt>
      <trkpt lat="48.08251" lon="7.09232">
        <ele>701.73816451825</ele>
        <time>2022-03-24T17:38:10.250Z</time>
      </trkpt>
      <trkpt lat="48.08252" lon="7.0922">
        <ele>704.26612317298</ele>
        <time>2022-03-24T17:38:11.795Z</time>
      </trkpt>
      <trkpt lat="48.08259" lon="7.09205">
        <ele>706.79334480891</ele>
        <time>2022-03-24T17:38:13.342Z</time>
      </trkpt>
      <trkpt lat="48.08334" lon="7.09062">
        <ele>710.34400671857</ele>
        <time>2022-03-24T17:38:14.909Z</time>
      </trkpt>
      <trkpt lat="48.08334" lon="7.09062">
        <ele>712.76961979149</ele>
        <time>2022-03-24T17:38:16.476Z</time>
      </trkpt>
      <trkpt lat="48.08346" lon="7.09039">
        <ele>715.22596931678</ele>
        <time>2022-03-24T17:38:18.046Z</time>
      </trkpt>
      <trkpt lat="48.08368" lon="7.09007">
        <ele>717.71218806022</ele>
        <time>2022-03-24T17:38:19.621Z</time>
      </trkpt>
      <trkpt lat="48.08369" lon="7.08998">
        <ele>720.080576415</ele>
        <time>2022-03-24T17:38:21.197Z</time>
      </trkpt>
      <trkpt lat="48.08368" lon="7.08991">
        <ele>722.44663446553</ele>
        <time>2022-03-24T17:38:22.774Z</time>
      </trkpt>
      <trkpt lat="48.08363" lon="7.08987">
        <ele>724.82901456541</ele>
        <time>2022-03-24T17:38:24.352Z</time>
      </trkpt>
      <trkpt lat="48.08359" lon="7.08988">
        <ele>727.17208662541</ele>
        <time>2022-03-24T17:38:25.930Z</time>
      </trkpt>
      <trkpt lat="48.08332" lon="7.09007">
        <ele>729.61590791268</ele>
        <time>2022-03-24T17:38:27.513Z</time>
      </trkpt>
      <trkpt lat="48.08326" lon="7.09007">
        <ele>731.98538703236</ele>
        <time>2022-03-24T17:38:29.097Z</time>
      </trkpt>
      <trkpt lat="48.08323" lon="7.09004">
        <ele>734.39569565411</ele>
        <time>2022-03-24T17:38:30.681Z</time>
      </trkpt>
      <trkpt lat="48.08319" lon="7.09009">
        <ele>736.75908005421</ele>
        <time>2022-03-24T17:38:32.266Z</time>
      </trkpt>
      <trkpt lat="48.0827" lon="7.09032">
        <ele>739.50434702134</ele>
        <time>2022-03-24T17:38:33.860Z</time>
      </trkpt>
      <trkpt lat="48.08261" lon="7.09032">
        <ele>741.98241708758</ele>
        <time>2022-03-24T17:38:35.455Z</time>
      </trkpt>
      <trkpt lat="48.08253" lon="7.09027">
        <ele>744.51765838879</ele>
        <time>2022-03-24T17:38:37.051Z</time>
      </trkpt>
      <trkpt lat="48.08227" lon="7.08985">
        <ele>747.40027890682</ele>
        <time>2022-03-24T17:38:38.653Z</time>
      </trkpt>
      <trkpt lat="48.08201" lon="7.08949">
        <ele>749.81101246168</ele>
        <time>2022-03-24T17:38:40.261Z</time>
      </trkpt>
      <trkpt lat="48.08192" lon="7.08926">
        <ele>752.18662581287</ele>
        <time>2022-03-24T17:38:41.872Z</time>
      </trkpt>
      <trkpt lat="48.08172" lon="7.08871">
        <ele>754.79833241398</ele>
        <time>2022-03-24T17:38:43.490Z</time>
      </trkpt>
      <trkpt lat="48.08161" lon="7.08837">
        <ele>757.4271195789</ele>
        <time>2022-03-24T17:38:45.112Z</time>
      </trkpt>
      <trkpt lat="48.08144" lon="7.08776">
        <ele>760.04719220419</ele>
        <time>2022-03-24T17:38:46.741Z</time>
      </trkpt>
      <trkpt lat="48.08142" lon="7.08745">
        <ele>762.29680070578</ele>
        <time>2022-03-24T17:38:48.373Z</time>
      </trkpt>
      <trkpt lat="48.08143" lon="7.08712">
        <ele>764.38203233968</ele>
        <time>2022-03-24T17:38:50.009Z</time>
      </trkpt>
      <trkpt lat="48.08147" lon="7.08682">
        <ele>766.35005054186</ele>
        <time>2022-03-24T17:38:51.648Z</time>
      </trkpt>
      <trkpt lat="48.08147" lon="7.08663">
        <ele>768.18826342392</ele>
        <time>2022-03-24T17:38:53.289Z</time>
      </trkpt>
      <trkpt lat="48.08145" lon="7.08657">
        <ele>769.78227266475</ele>
        <time>2022-03-24T17:38:54.931Z</time>
      </trkpt>
      <trkpt lat="48.0814" lon="7.0865">
        <ele>771.20456121142</ele>
        <time>2022-03-24T17:38:56.574Z</time>
      </trkpt>
      <trkpt lat="48.08126" lon="7.08649">
        <ele>772.35882331157</ele>
        <time>2022-03-24T17:38:58.219Z</time>
      </trkpt>
      <trkpt lat="48.08102" lon="7.08672">
        <ele>773.27913242758</ele>
        <time>2022-03-24T17:38:59.869Z</time>
      </trkpt>
      <trkpt lat="48.0808" lon="7.08687">
        <ele>774.35109470009</ele>
        <time>2022-03-24T17:39:01.523Z</time>
      </trkpt>
      <trkpt lat="48.0807" lon="7.08705">
        <ele>775.22372374037</ele>
        <time>2022-03-24T17:39:03.179Z</time>
      </trkpt>
      <trkpt lat="48.08046" lon="7.08762">
        <ele>776.16859484094</ele>
        <time>2022-03-24T17:39:04.842Z</time>
      </trkpt>
      <trkpt lat="48.08015" lon="7.08808">
        <ele>776.6037974634</ele>
        <time>2022-03-24T17:39:06.512Z</time>
      </trkpt>
      <trkpt lat="48.07961" lon="7.08913">
        <ele>777.18797838157</ele>
        <time>2022-03-24T17:39:08.197Z</time>
      </trkpt>
      <trkpt lat="48.07928" lon="7.08968">
        <ele>777.7854507938</ele>
        <time>2022-03-24T17:39:09.889Z</time>
      </trkpt>
      <trkpt lat="48.07912" lon="7.08992">
        <ele>778.05418655278</ele>
        <time>2022-03-24T17:39:11.585Z</time>
      </trkpt>
      <trkpt lat="48.07903" lon="7.09011">
        <ele>778.07404605755</ele>
        <time>2022-03-24T17:39:13.284Z</time>
      </trkpt>
      <trkpt lat="48.07899" lon="7.09023">
        <ele>777.84542467301</ele>
        <time>2022-03-24T17:39:14.984Z</time>
      </trkpt>
      <trkpt lat="48.07881" lon="7.09063">
        <ele>777.46159694864</ele>
        <time>2022-03-24T17:39:16.689Z</time>
      </trkpt>
      <trkpt lat="48.07852" lon="7.09122">
        <ele>776.60759119328</ele>
        <time>2022-03-24T17:39:18.402Z</time>
      </trkpt>
      <trkpt lat="48.0784" lon="7.09151">
        <ele>775.82951732824</ele>
        <time>2022-03-24T17:39:20.119Z</time>
      </trkpt>
      <trkpt lat="48.07809" lon="7.09199">
        <ele>774.93174674838</ele>
        <time>2022-03-24T17:39:21.843Z</time>
      </trkpt>
      <trkpt lat="48.07789" lon="7.09236">
        <ele>773.73356050936</ele>
        <time>2022-03-24T17:39:23.572Z</time>
      </trkpt>
      <trkpt lat="48.07789" lon="7.09236">
        <ele>772.79212863839</ele>
        <time>2022-03-24T17:39:25.301Z</time>
      </trkpt>
      <trkpt lat="48.07779" lon="7.09253">
        <ele>771.72522137832</ele>
        <time>2022-03-24T17:39:27.032Z</time>
      </trkpt>
      <trkpt lat="48.0777" lon="7.09279">
        <ele>770.52915926296</ele>
        <time>2022-03-24T17:39:28.767Z</time>
      </trkpt>
      <trkpt lat="48.07761" lon="7.09296">
        <ele>769.32946242805</ele>
        <time>2022-03-24T17:39:30.504Z</time>
      </trkpt>
      <trkpt lat="48.0775" lon="7.09307">
        <ele>768.1953447733</ele>
        <time>2022-03-24T17:39:32.243Z</time>
      </trkpt>
      <trkpt lat="48.07734" lon="7.09316">
        <ele>766.96810162988</ele>
        <time>2022-03-24T17:39:33.985Z</time>
      </trkpt>
      <trkpt lat="48.07734" lon="7.09316">
        <ele>765.65297862295</ele>
        <time>2022-03-24T17:39:35.727Z</time>
      </trkpt>
      <trkpt lat="48.07727" lon="7.09324">
        <ele>764.28793421364</ele>
        <time>2022-03-24T17:39:37.470Z</time>
      </trkpt>
      <trkpt lat="48.07722" lon="7.09333">
        <ele>762.85333420817</ele>
        <time>2022-03-24T17:39:39.214Z</time>
      </trkpt>
      <trkpt lat="48.07714" lon="7.09374">
        <ele>761.2073248266</ele>
        <time>2022-03-24T17:39:40.963Z</time>
      </trkpt>
      <trkpt lat="48.07708" lon="7.09387">
        <ele>759.60225092743</ele>
        <time>2022-03-24T17:39:42.714Z</time>
      </trkpt>
      <trkpt lat="48.07708" lon="7.09387">
        <ele>757.98255043229</ele>
        <time>2022-03-24T17:39:44.465Z</time>
      </trkpt>
      <trkpt lat="48.07707" lon="7.09389">
        <ele>756.2933358206</ele>
        <time>2022-03-24T17:39:46.216Z</time>
      </trkpt>
      <trkpt lat="48.077" lon="7.094">
        <ele>754.50873014442</ele>
        <time>2022-03-24T17:39:47.969Z</time>
      </trkpt>
      <trkpt lat="48.07673" lon="7.09426">
        <ele>752.51019477071</ele>
        <time>2022-03-24T17:39:49.727Z</time>
      </trkpt>
      <trkpt lat="48.07673" lon="7.09426">
        <ele>750.65409998737</ele>
        <time>2022-03-24T17:39:51.485Z</time>
      </trkpt>
      <trkpt lat="48.07597" lon="7.09496">
        <ele>748.05215133052</ele>
        <time>2022-03-24T17:39:53.257Z</time>
      </trkpt>
      <trkpt lat="48.0758" lon="7.09512">
        <ele>746.01251646014</ele>
        <time>2022-03-24T17:39:55.032Z</time>
      </trkpt>
      <trkpt lat="48.0758" lon="7.09512">
        <ele>744.0602197778</ele>
        <time>2022-03-24T17:39:56.807Z</time>
      </trkpt>
      <trkpt lat="48.07559" lon="7.0953">
        <ele>741.9814282506</ele>
        <time>2022-03-24T17:39:58.586Z</time>
      </trkpt>
      <trkpt lat="48.07549" lon="7.09537">
        <ele>739.92272619996</ele>
        <time>2022-03-24T17:40:00.367Z</time>
      </trkpt>
      <trkpt lat="48.07524" lon="7.0954">
        <ele>737.77466030173</ele>
        <time>2022-03-24T17:40:02.152Z</time>
      </trkpt>
      <trkpt lat="48.07483" lon="7.0954">
        <ele>735.65445386996</ele>
        <time>2022-03-24T17:40:03.943Z</time>
      </trkpt>
      <trkpt lat="48.07472" lon="7.09539">
        <ele>733.64004966187</ele>
        <time>2022-03-24T17:40:05.736Z</time>
      </trkpt>
      <trkpt lat="48.07453" lon="7.09532">
        <ele>731.59338375912</ele>
        <time>2022-03-24T17:40:07.532Z</time>
      </trkpt>
      <trkpt lat="48.07438" lon="7.09526">
        <ele>729.50726746619</ele>
        <time>2022-03-24T17:40:09.331Z</time>
      </trkpt>
      <trkpt lat="48.07421" lon="7.09525">
        <ele>727.37119379927</ele>
        <time>2022-03-24T17:40:11.133Z</time>
      </trkpt>
      <trkpt lat="48.07401" lon="7.09514">
        <ele>725.27371177669</ele>
        <time>2022-03-24T17:40:12.938Z</time>
      </trkpt>
      <trkpt lat="48.07387" lon="7.09513">
        <ele>723.15591559202</ele>
        <time>2022-03-24T17:40:14.745Z</time>
      </trkpt>
      <trkpt lat="48.07358" lon="7.09517">
        <ele>720.97033398788</ele>
        <time>2022-03-24T17:40:16.557Z</time>
      </trkpt>
      <trkpt lat="48.07348" lon="7.09521">
        <ele>718.95847317844</ele>
        <time>2022-03-24T17:40:18.370Z</time>
      </trkpt>
      <trkpt lat="48.07333" lon="7.0953">
        <ele>716.93653124943</ele>
        <time>2022-03-24T17:40:20.186Z</time>
      </trkpt>
      <trkpt lat="48.07295" lon="7.09584">
        <ele>714.59752397528</ele>
        <time>2022-03-24T17:40:22.010Z</time>
      </trkpt>
      <trkpt lat="48.07285" lon="7.09596">
        <ele>712.72134317563</ele>
        <time>2022-03-24T17:40:23.837Z</time>
      </trkpt>
      <trkpt lat="48.07274" lon="7.09602">
        <ele>710.95123317945</ele>
        <time>2022-03-24T17:40:25.665Z</time>
      </trkpt>
      <trkpt lat="48.07245" lon="7.09613">
        <ele>709.11010973295</ele>
        <time>2022-03-24T17:40:27.498Z</time>
      </trkpt>
      <trkpt lat="48.07227" lon="7.09616">
        <ele>707.2951707903</ele>
        <time>2022-03-24T17:40:29.334Z</time>
      </trkpt>
      <trkpt lat="48.07157" lon="7.09608">
        <ele>705.30244499893</ele>
        <time>2022-03-24T17:40:31.181Z</time>
      </trkpt>
      <trkpt lat="48.07118" lon="7.09612">
        <ele>703.40318161192</ele>
        <time>2022-03-24T17:40:33.035Z</time>
      </trkpt>
      <trkpt lat="48.07118" lon="7.09612">
        <ele>701.71924608042</ele>
        <time>2022-03-24T17:40:34.889Z</time>
      </trkpt>
      <trkpt lat="48.07103" lon="7.09614">
        <ele>699.92607048489</ele>
        <time>2022-03-24T17:40:36.745Z</time>
      </trkpt>
      <trkpt lat="48.07097" lon="7.09613">
        <ele>698.24175145507</ele>
        <time>2022-03-24T17:40:38.602Z</time>
      </trkpt>
      <trkpt lat="48.07093" lon="7.09618">
        <ele>696.50693260688</ele>
        <time>2022-03-24T17:40:40.460Z</time>
      </trkpt>
      <trkpt lat="48.07084" lon="7.09619">
        <ele>694.78862254201</ele>
        <time>2022-03-24T17:40:42.319Z</time>
      </trkpt>
      <trkpt lat="48.07075" lon="7.09617">
        <ele>693.12199179161</ele>
        <time>2022-03-24T17:40:44.180Z</time>
      </trkpt>
      <trkpt lat="48.07035" lon="7.09588">
        <ele>691.57849457568</ele>
        <time>2022-03-24T17:40:46.048Z</time>
      </trkpt>
      <trkpt lat="48.07005" lon="7.09574">
        <ele>689.89265080926</ele>
        <time>2022-03-24T17:40:47.921Z</time>
      </trkpt>
      <trkpt lat="48.06957" lon="7.09543">
        <ele>688.08257881191</ele>
        <time>2022-03-24T17:40:49.802Z</time>
      </trkpt>
      <trkpt lat="48.06928" lon="7.09539">
        <ele>686.20666264078</ele>
        <time>2022-03-24T17:40:51.688Z</time>
      </trkpt>
      <trkpt lat="48.06905" lon="7.09525">
        <ele>684.53821822606</ele>
        <time>2022-03-24T17:40:53.578Z</time>
      </trkpt>
      <trkpt lat="48.06894" lon="7.09522">
        <ele>682.8653290968</ele>
        <time>2022-03-24T17:40:55.470Z</time>
      </trkpt>
      <trkpt lat="48.06862" lon="7.09531">
        <ele>680.95508078099</ele>
        <time>2022-03-24T17:40:57.367Z</time>
      </trkpt>
      <trkpt lat="48.06859" lon="7.09537">
        <ele>679.31497540898</ele>
        <time>2022-03-24T17:40:59.265Z</time>
      </trkpt>
      <trkpt lat="48.06855" lon="7.09548">
        <ele>677.63408644512</ele>
        <time>2022-03-24T17:41:01.164Z</time>
      </trkpt>
      <trkpt lat="48.06855" lon="7.09556">
        <ele>676.00103754453</ele>
        <time>2022-03-24T17:41:03.064Z</time>
      </trkpt>
      <trkpt lat="48.06858" lon="7.0957">
        <ele>674.34715825612</ele>
        <time>2022-03-24T17:41:04.965Z</time>
      </trkpt>
      <trkpt lat="48.06865" lon="7.0958">
        <ele>672.67707646099</ele>
        <time>2022-03-24T17:41:06.868Z</time>
      </trkpt>
      <trkpt lat="48.06876" lon="7.09587">
        <ele>671.040297373</ele>
        <time>2022-03-24T17:41:08.773Z</time>
      </trkpt>
      <trkpt lat="48.06878" lon="7.09595">
        <ele>669.33539133651</ele>
        <time>2022-03-24T17:41:10.679Z</time>
      </trkpt>
      <trkpt lat="48.06877" lon="7.09603">
        <ele>667.62110699872</ele>
        <time>2022-03-24T17:41:12.586Z</time>
      </trkpt>
      <trkpt lat="48.06854" lon="7.09632">
        <ele>665.83523239936</ele>
        <time>2022-03-24T17:41:14.497Z</time>
      </trkpt>
      <trkpt lat="48.06849" lon="7.09636">
        <ele>664.27694109906</ele>
        <time>2022-03-24T17:41:16.409Z</time>
      </trkpt>
      <trkpt lat="48.06813" lon="7.09641">
        <ele>662.65493358441</ele>
        <time>2022-03-24T17:41:18.327Z</time>
      </trkpt>
      <trkpt lat="48.06798" lon="7.09637">
        <ele>660.99209458009</ele>
        <time>2022-03-24T17:41:20.248Z</time>
      </trkpt>
      <trkpt lat="48.06798" lon="7.09637">
        <ele>659.37525025535</ele>
        <time>2022-03-24T17:41:22.169Z</time>
      </trkpt>
      <trkpt lat="48.06788" lon="7.09647">
        <ele>657.65445154155</ele>
        <time>2022-03-24T17:41:24.092Z</time>
      </trkpt>
      <trkpt lat="48.06784" lon="7.09664">
        <ele>655.93443670243</ele>
        <time>2022-03-24T17:41:26.017Z</time>
      </trkpt>
      <trkpt lat="48.06778" lon="7.09694">
        <ele>654.17604690122</ele>
        <time>2022-03-24T17:41:27.945Z</time>
      </trkpt>
      <trkpt lat="48.0678" lon="7.09705">
        <ele>652.4667263031</ele>
        <time>2022-03-24T17:41:29.874Z</time>
      </trkpt>
      <trkpt lat="48.06802" lon="7.09729">
        <ele>650.7241916564</ele>
        <time>2022-03-24T17:41:31.807Z</time>
      </trkpt>
      <trkpt lat="48.0682" lon="7.09757">
        <ele>648.84375332128</ele>
        <time>2022-03-24T17:41:33.744Z</time>
      </trkpt>
      <trkpt lat="48.06821" lon="7.09764">
        <ele>647.13409718821</ele>
        <time>2022-03-24T17:41:35.682Z</time>
      </trkpt>
      <trkpt lat="48.06818" lon="7.09769">
        <ele>645.45186601105</ele>
        <time>2022-03-24T17:41:37.621Z</time>
      </trkpt>
      <trkpt lat="48.06813" lon="7.09772">
        <ele>643.83688322327</ele>
        <time>2022-03-24T17:41:39.561Z</time>
      </trkpt>
      <trkpt lat="48.06783" lon="7.09774">
        <ele>642.03889645738</ele>
        <time>2022-03-24T17:41:41.506Z</time>
      </trkpt>
      <trkpt lat="48.06755" lon="7.09765">
        <ele>640.40157919984</ele>
        <time>2022-03-24T17:41:43.455Z</time>
      </trkpt>
      <trkpt lat="48.06746" lon="7.09762">
        <ele>638.99393564751</ele>
        <time>2022-03-24T17:41:45.406Z</time>
      </trkpt>
      <trkpt lat="48.0674" lon="7.09757">
        <ele>637.72616796726</ele>
        <time>2022-03-24T17:41:47.358Z</time>
      </trkpt>
      <trkpt lat="48.06724" lon="7.09745">
        <ele>636.51569554196</ele>
        <time>2022-03-24T17:41:49.313Z</time>
      </trkpt>
      <trkpt lat="48.06719" lon="7.09747">
        <ele>635.43189711757</ele>
        <time>2022-03-24T17:41:51.269Z</time>
      </trkpt>
      <trkpt lat="48.06705" lon="7.0976">
        <ele>634.39135822025</ele>
        <time>2022-03-24T17:41:53.227Z</time>
      </trkpt>
      <trkpt lat="48.06682" lon="7.09762">
        <ele>633.57906821531</ele>
        <time>2022-03-24T17:41:55.189Z</time>
      </trkpt>
      <trkpt lat="48.06682" lon="7.09762">
        <ele>632.98002240217</ele>
        <time>2022-03-24T17:41:57.151Z</time>
      </trkpt>
      <trkpt lat="48.06677" lon="7.09762">
        <ele>632.48210349662</ele>
        <time>2022-03-24T17:41:59.114Z</time>
      </trkpt>
      <trkpt lat="48.06666" lon="7.09766">
        <ele>632.08830160449</ele>
        <time>2022-03-24T17:42:01.079Z</time>
      </trkpt>
      <trkpt lat="48.06659" lon="7.09765">
        <ele>630.66169638919</ele>
        <time>2022-03-24T17:42:03.045Z</time>
      </trkpt>
      <trkpt lat="48.06668" lon="7.09743">
        <ele>632.03426556252</ele>
        <time>2022-03-24T17:42:05.013Z</time>
      </trkpt>
      <trkpt lat="48.06675" lon="7.0971">
        <ele>633.38637519502</ele>
        <time>2022-03-24T17:42:06.985Z</time>
      </trkpt>
      <trkpt lat="48.0668" lon="7.09676">
        <ele>634.75616931106</ele>
        <time>2022-03-24T17:42:08.961Z</time>
      </trkpt>
      <trkpt lat="48.06678" lon="7.09644">
        <ele>636.01228780752</ele>
        <time>2022-03-24T17:42:10.940Z</time>
      </trkpt>
      <trkpt lat="48.06658" lon="7.09445">
        <ele>637.54476613505</ele>
        <time>2022-03-24T17:42:12.941Z</time>
      </trkpt>
      <trkpt lat="48.06656" lon="7.09431">
        <ele>638.70089311983</ele>
        <time>2022-03-24T17:42:14.943Z</time>
      </trkpt>
      <trkpt lat="48.06649" lon="7.09419">
        <ele>639.75282575105</ele>
        <time>2022-03-24T17:42:16.947Z</time>
      </trkpt>
      <trkpt lat="48.06641" lon="7.09408">
        <ele>640.68300812052</ele>
        <time>2022-03-24T17:42:18.953Z</time>
      </trkpt>
      <trkpt lat="48.06629" lon="7.09401">
        <ele>641.46946091817</ele>
        <time>2022-03-24T17:42:20.961Z</time>
      </trkpt>
      <trkpt lat="48.06617" lon="7.09401">
        <ele>642.25145890987</ele>
        <time>2022-03-24T17:42:22.971Z</time>
      </trkpt>
      <trkpt lat="48.06586" lon="7.0942">
        <ele>642.85508253842</ele>
        <time>2022-03-24T17:42:24.986Z</time>
      </trkpt>
      <trkpt lat="48.06574" lon="7.09422">
        <ele>643.76187944679</ele>
        <time>2022-03-24T17:42:27.003Z</time>
      </trkpt>
      <trkpt lat="48.06563" lon="7.09419">
        <ele>644.75970320143</ele>
        <time>2022-03-24T17:42:29.022Z</time>
      </trkpt>
      <trkpt lat="48.06552" lon="7.09411">
        <ele>645.82476518487</ele>
        <time>2022-03-24T17:42:31.043Z</time>
      </trkpt>
      <trkpt lat="48.06552" lon="7.09411">
        <ele>646.73074284567</ele>
        <time>2022-03-24T17:42:33.064Z</time>
      </trkpt>
      <trkpt lat="48.06534" lon="7.09399">
        <ele>647.95037691446</ele>
        <time>2022-03-24T17:42:35.088Z</time>
      </trkpt>
      <trkpt lat="48.06523" lon="7.09394">
        <ele>649.02552857505</ele>
        <time>2022-03-24T17:42:37.114Z</time>
      </trkpt>
      <trkpt lat="48.06501" lon="7.09393">
        <ele>649.99120850973</ele>
        <time>2022-03-24T17:42:39.143Z</time>
      </trkpt>
      <trkpt lat="48.06492" lon="7.09396">
        <ele>650.79419118367</ele>
        <time>2022-03-24T17:42:41.174Z</time>
      </trkpt>
      <trkpt lat="48.06463" lon="7.0941">
        <ele>651.62125754734</ele>
        <time>2022-03-24T17:42:43.210Z</time>
      </trkpt>
      <trkpt lat="48.06463" lon="7.0941">
        <ele>652.60033251135</ele>
        <time>2022-03-24T17:42:45.246Z</time>
      </trkpt>
      <trkpt lat="48.0641" lon="7.09435">
        <ele>654.10369232245</ele>
        <time>2022-03-24T17:42:47.291Z</time>
      </trkpt>
      <trkpt lat="48.06375" lon="7.09448">
        <ele>655.17903770431</ele>
        <time>2022-03-24T17:42:49.341Z</time>
      </trkpt>
      <trkpt lat="48.06358" lon="7.09451">
        <ele>656.00740573746</ele>
        <time>2022-03-24T17:42:51.394Z</time>
      </trkpt>
      <trkpt lat="48.06344" lon="7.09451">
        <ele>656.91117052026</ele>
        <time>2022-03-24T17:42:53.449Z</time>
      </trkpt>
      <trkpt lat="48.06323" lon="7.09445">
        <ele>657.92038387587</ele>
        <time>2022-03-24T17:42:55.508Z</time>
      </trkpt>
      <trkpt lat="48.06312" lon="7.09439">
        <ele>658.87998994421</ele>
        <time>2022-03-24T17:42:57.569Z</time>
      </trkpt>
      <trkpt lat="48.06297" lon="7.09427">
        <ele>659.84967514129</ele>
        <time>2022-03-24T17:42:59.632Z</time>
      </trkpt>
      <trkpt lat="48.0628" lon="7.09409">
        <ele>660.80601452138</ele>
        <time>2022-03-24T17:43:01.699Z</time>
      </trkpt>
      <trkpt lat="48.06271" lon="7.09393">
        <ele>661.67454932445</ele>
        <time>2022-03-24T17:43:03.768Z</time>
      </trkpt>
      <trkpt lat="48.06246" lon="7.09339">
        <ele>662.85578792643</ele>
        <time>2022-03-24T17:43:05.844Z</time>
      </trkpt>
      <trkpt lat="48.06236" lon="7.09324">
        <ele>663.59590727673</ele>
        <time>2022-03-24T17:43:07.922Z</time>
      </trkpt>
      <trkpt lat="48.06231" lon="7.0932">
        <ele>664.16239857245</ele>
        <time>2022-03-24T17:43:10.001Z</time>
      </trkpt>
      <trkpt lat="48.06231" lon="7.0932">
        <ele>664.70561825647</ele>
        <time>2022-03-24T17:43:12.080Z</time>
      </trkpt>
      <trkpt lat="48.06225" lon="7.09315">
        <ele>665.21365076302</ele>
        <time>2022-03-24T17:43:14.160Z</time>
      </trkpt>
      <trkpt lat="48.06209" lon="7.09309">
        <ele>665.6087602273</ele>
        <time>2022-03-24T17:43:16.243Z</time>
      </trkpt>
      <trkpt lat="48.06192" lon="7.09311">
        <ele>666.07728220598</ele>
        <time>2022-03-24T17:43:18.329Z</time>
      </trkpt>
      <trkpt lat="48.06182" lon="7.09315">
        <ele>666.62233976767</ele>
        <time>2022-03-24T17:43:20.416Z</time>
      </trkpt>
      <trkpt lat="48.0617" lon="7.09322">
        <ele>667.26870032981</ele>
        <time>2022-03-24T17:43:22.505Z</time>
      </trkpt>
      <trkpt lat="48.06147" lon="7.09338">
        <ele>667.99685564183</ele>
        <time>2022-03-24T17:43:24.598Z</time>
      </trkpt>
      <trkpt lat="48.06129" lon="7.09346">
        <ele>668.94214084918</ele>
        <time>2022-03-24T17:43:26.694Z</time>
      </trkpt>
      <trkpt lat="48.06111" lon="7.09346">
        <ele>670.15210593573</ele>
        <time>2022-03-24T17:43:28.793Z</time>
      </trkpt>
      <trkpt lat="48.06088" lon="7.09339">
        <ele>671.51191753528</ele>
        <time>2022-03-24T17:43:30.896Z</time>
      </trkpt>
      <trkpt lat="48.06064" lon="7.09322">
        <ele>673.0208152381</ele>
        <time>2022-03-24T17:43:33.003Z</time>
      </trkpt>
      <trkpt lat="48.06037" lon="7.09297">
        <ele>674.52312668547</ele>
        <time>2022-03-24T17:43:35.115Z</time>
      </trkpt>
      <trkpt lat="48.06021" lon="7.09279">
        <ele>675.99132939398</ele>
        <time>2022-03-24T17:43:37.231Z</time>
      </trkpt>
      <trkpt lat="48.06021" lon="7.09279">
        <ele>677.38773806622</ele>
        <time>2022-03-24T17:43:39.347Z</time>
      </trkpt>
      <trkpt lat="48.06003" lon="7.09254">
        <ele>678.98109675907</ele>
        <time>2022-03-24T17:43:41.467Z</time>
      </trkpt>
      <trkpt lat="48.05978" lon="7.09205">
        <ele>680.77356560305</ele>
        <time>2022-03-24T17:43:43.593Z</time>
      </trkpt>
      <trkpt lat="48.05969" lon="7.09179">
        <ele>685.8969250186</ele>
        <time>2022-03-24T17:43:45.722Z</time>
      </trkpt>
      <trkpt lat="48.0596" lon="7.09144">
        <ele>687.86640801476</ele>
        <time>2022-03-24T17:43:47.855Z</time>
      </trkpt>
      <trkpt lat="48.05956" lon="7.09124">
        <ele>689.72254028631</ele>
        <time>2022-03-24T17:43:49.991Z</time>
      </trkpt>
      <trkpt lat="48.05954" lon="7.09099">
        <ele>691.63555269326</ele>
        <time>2022-03-24T17:43:52.129Z</time>
      </trkpt>
      <trkpt lat="48.05957" lon="7.09069">
        <ele>693.68445758138</ele>
        <time>2022-03-24T17:43:54.271Z</time>
      </trkpt>
      <trkpt lat="48.05962" lon="7.09053">
        <ele>695.7265574767</ele>
        <time>2022-03-24T17:43:56.414Z</time>
      </trkpt>
      <trkpt lat="48.05969" lon="7.09034">
        <ele>697.9000806929</ele>
        <time>2022-03-24T17:43:58.560Z</time>
      </trkpt>
      <trkpt lat="48.06" lon="7.08978">
        <ele>700.27270751393</ele>
        <time>2022-03-24T17:44:00.714Z</time>
      </trkpt>
      <trkpt lat="48.0602" lon="7.08941">
        <ele>702.27579736697</ele>
        <time>2022-03-24T17:44:02.873Z</time>
      </trkpt>
      <trkpt lat="48.06044" lon="7.0888">
        <ele>704.42928575219</ele>
        <time>2022-03-24T17:44:05.039Z</time>
      </trkpt>
      <trkpt lat="48.06057" lon="7.08828">
        <ele>706.38757655449</ele>
        <time>2022-03-24T17:44:07.211Z</time>
      </trkpt>
      <trkpt lat="48.06057" lon="7.08828">
        <ele>707.84543676416</ele>
        <time>2022-03-24T17:44:09.383Z</time>
      </trkpt>
      <trkpt lat="48.06064" lon="7.08778">
        <ele>709.23181898163</ele>
        <time>2022-03-24T17:44:11.561Z</time>
      </trkpt>
      <trkpt lat="48.06063" lon="7.08707">
        <ele>709.97782671528</ele>
        <time>2022-03-24T17:44:13.746Z</time>
      </trkpt>
      <trkpt lat="48.06063" lon="7.08707">
        <ele>711.0823159325</ele>
        <time>2022-03-24T17:44:15.931Z</time>
      </trkpt>
      <trkpt lat="48.06063" lon="7.08699">
        <ele>710.44562183596</ele>
        <time>2022-03-24T17:44:18.117Z</time>
      </trkpt>
      <trkpt lat="48.06066" lon="7.08643">
        <ele>712.94381177213</ele>
        <time>2022-03-24T17:44:20.309Z</time>
      </trkpt>
      <trkpt lat="48.06068" lon="7.08644">
        <ele>712.48524342855</ele>
        <time>2022-03-24T17:44:22.502Z</time>
      </trkpt>
      <trkpt lat="48.06072" lon="7.08656">
        <ele>713.91788193226</ele>
        <time>2022-03-24T17:44:24.696Z</time>
      </trkpt>
      <trkpt lat="48.06073" lon="7.08669">
        <ele>714.01953307123</ele>
        <time>2022-03-24T17:44:26.891Z</time>
      </trkpt>
      <trkpt lat="48.06073" lon="7.08718">
        <ele>713.89323419409</ele>
        <time>2022-03-24T17:44:29.092Z</time>
      </trkpt>
      <trkpt lat="48.06076" lon="7.08761">
        <ele>713.53151232994</ele>
        <time>2022-03-24T17:44:31.297Z</time>
      </trkpt>
      <trkpt lat="48.06073" lon="7.08816">
        <ele>713.07070281999</ele>
        <time>2022-03-24T17:44:33.508Z</time>
      </trkpt>
      <trkpt lat="48.06065" lon="7.08877">
        <ele>712.14020893491</ele>
        <time>2022-03-24T17:44:35.726Z</time>
      </trkpt>
      <trkpt lat="48.06053" lon="7.08942">
        <ele>711.08885464954</ele>
        <time>2022-03-24T17:44:37.951Z</time>
      </trkpt>
      <trkpt lat="48.06044" lon="7.08971">
        <ele>710.71411566972</ele>
        <time>2022-03-24T17:44:40.180Z</time>
      </trkpt>
      <trkpt lat="48.06034" lon="7.09008">
        <ele>710.42258399184</ele>
        <time>2022-03-24T17:44:42.413Z</time>
      </trkpt>
      <trkpt lat="48.0603" lon="7.09026">
        <ele>710.03750747889</ele>
        <time>2022-03-24T17:44:44.648Z</time>
      </trkpt>
      <trkpt lat="48.0603" lon="7.09044">
        <ele>709.71584295837</ele>
        <time>2022-03-24T17:44:46.885Z</time>
      </trkpt>
      <trkpt lat="48.06035" lon="7.09066">
        <ele>709.49017673759</ele>
        <time>2022-03-24T17:44:49.124Z</time>
      </trkpt>
      <trkpt lat="48.06035" lon="7.09066">
        <ele>709.25242840553</ele>
        <time>2022-03-24T17:44:51.363Z</time>
      </trkpt>
      <trkpt lat="48.06041" lon="7.09076">
        <ele>709.14269017895</ele>
        <time>2022-03-24T17:44:53.604Z</time>
      </trkpt>
      <trkpt lat="48.06053" lon="7.09083">
        <ele>708.73772340704</ele>
        <time>2022-03-24T17:44:55.847Z</time>
      </trkpt>
    </trkseg>
  </trk>
</gpx>